<?xml version="1.0" encoding="UTF-8" standalone="no" ?>
<gpx xmlns="http://www.topografix.com/GPX/1/1" xmlns:xsi="http://www.w3.org/2001/XMLSchema-instance" xsi:schemaLocation="http://www.topografix.com/GPX/1/1 http://www.topografix.com/GPX/1/1/gpx.xsd" version="1.1" creator="VisuGPX - https://www.visugpx.com">
  <metadata>
    <name>Rumilly 60km</name>
    <desc><![CDATA[rando vtt assez longue de 60km mais belle]]></desc>
  </metadata>
  <trk>
    <name><![CDATA[Rumilly60km on GPSies.com]]></name>
    <trkseg>
      <trkpt lat="45.85926" lon="5.95769">
        <ele>346</ele>
        <time>2010-01-01T00:00:00Z</time>
      </trkpt>
      <trkpt lat="45.85967" lon="5.95737">
        <ele>346</ele>
        <time>2010-01-01T00:00:18Z</time>
      </trkpt>
      <trkpt lat="45.86012" lon="5.95704">
        <ele>346</ele>
        <time>2010-01-01T00:00:38Z</time>
      </trkpt>
      <trkpt lat="45.86006" lon="5.95644">
        <ele>348</ele>
        <time>2010-01-01T00:00:55Z</time>
      </trkpt>
      <trkpt lat="45.85998" lon="5.95619">
        <ele>349</ele>
        <time>2010-01-01T00:01:03Z</time>
      </trkpt>
      <trkpt lat="45.8597" lon="5.95573">
        <ele>350</ele>
        <time>2010-01-01T00:01:20Z</time>
      </trkpt>
      <trkpt lat="45.85944" lon="5.95547">
        <ele>350</ele>
        <time>2010-01-01T00:01:32Z</time>
      </trkpt>
      <trkpt lat="45.85918" lon="5.95513">
        <ele>351</ele>
        <time>2010-01-01T00:01:46Z</time>
      </trkpt>
      <trkpt lat="45.85899" lon="5.95501">
        <ele>351</ele>
        <time>2010-01-01T00:01:55Z</time>
      </trkpt>
      <trkpt lat="45.85508" lon="5.95677">
        <ele>354</ele>
        <time>2010-01-01T00:04:39Z</time>
      </trkpt>
      <trkpt lat="45.85471" lon="5.95692">
        <ele>354</ele>
        <time>2010-01-01T00:04:54Z</time>
      </trkpt>
      <trkpt lat="45.85454" lon="5.9568">
        <ele>354</ele>
        <time>2010-01-01T00:05:02Z</time>
      </trkpt>
      <trkpt lat="45.85406" lon="5.95452">
        <ele>355</ele>
        <time>2010-01-01T00:06:08Z</time>
      </trkpt>
      <trkpt lat="45.85308" lon="5.95482">
        <ele>356</ele>
        <time>2010-01-01T00:06:48Z</time>
      </trkpt>
      <trkpt lat="45.8527" lon="5.95489">
        <ele>356</ele>
        <time>2010-01-01T00:07:04Z</time>
      </trkpt>
      <trkpt lat="45.85249" lon="5.95482">
        <ele>356</ele>
        <time>2010-01-01T00:07:12Z</time>
      </trkpt>
      <trkpt lat="45.85212" lon="5.95509">
        <ele>356</ele>
        <time>2010-01-01T00:07:29Z</time>
      </trkpt>
      <trkpt lat="45.85191" lon="5.95515">
        <ele>356</ele>
        <time>2010-01-01T00:07:37Z</time>
      </trkpt>
      <trkpt lat="45.84915" lon="5.9558">
        <ele>350</ele>
        <time>2010-01-01T00:09:30Z</time>
      </trkpt>
      <trkpt lat="45.84782" lon="5.95662">
        <ele>342</ele>
        <time>2010-01-01T00:10:27Z</time>
      </trkpt>
      <trkpt lat="45.84746" lon="5.95658">
        <ele>344</ele>
        <time>2010-01-01T00:10:42Z</time>
      </trkpt>
      <trkpt lat="45.84724" lon="5.95659">
        <ele>344</ele>
        <time>2010-01-01T00:10:51Z</time>
      </trkpt>
      <trkpt lat="45.84678" lon="5.95567">
        <ele>346</ele>
        <time>2010-01-01T00:11:22Z</time>
      </trkpt>
      <trkpt lat="45.84644" lon="5.95527">
        <ele>347</ele>
        <time>2010-01-01T00:11:40Z</time>
      </trkpt>
      <trkpt lat="45.84608" lon="5.95516">
        <ele>347</ele>
        <time>2010-01-01T00:11:55Z</time>
      </trkpt>
      <trkpt lat="45.8451" lon="5.95515">
        <ele>348</ele>
        <time>2010-01-01T00:12:34Z</time>
      </trkpt>
      <trkpt lat="45.84227" lon="5.95505">
        <ele>351</ele>
        <time>2010-01-01T00:14:27Z</time>
      </trkpt>
      <trkpt lat="45.84171" lon="5.95515">
        <ele>351</ele>
        <time>2010-01-01T00:14:50Z</time>
      </trkpt>
      <trkpt lat="45.84133" lon="5.95514">
        <ele>350</ele>
        <time>2010-01-01T00:15:05Z</time>
      </trkpt>
      <trkpt lat="45.84074" lon="5.95511">
        <ele>350</ele>
        <time>2010-01-01T00:15:28Z</time>
      </trkpt>
      <trkpt lat="45.84055" lon="5.95495">
        <ele>350</ele>
        <time>2010-01-01T00:15:37Z</time>
      </trkpt>
      <trkpt lat="45.84049" lon="5.95469">
        <ele>351</ele>
        <time>2010-01-01T00:15:45Z</time>
      </trkpt>
      <trkpt lat="45.84074" lon="5.95391">
        <ele>352</ele>
        <time>2010-01-01T00:16:09Z</time>
      </trkpt>
      <trkpt lat="45.84076" lon="5.95367">
        <ele>352</ele>
        <time>2010-01-01T00:16:16Z</time>
      </trkpt>
      <trkpt lat="45.84062" lon="5.95351">
        <ele>352</ele>
        <time>2010-01-01T00:16:23Z</time>
      </trkpt>
      <trkpt lat="45.8394" lon="5.95344">
        <ele>353</ele>
        <time>2010-01-01T00:17:12Z</time>
      </trkpt>
      <trkpt lat="45.83619" lon="5.95333">
        <ele>354</ele>
        <time>2010-01-01T00:19:20Z</time>
      </trkpt>
      <trkpt lat="45.83217" lon="5.95319">
        <ele>357</ele>
        <time>2010-01-01T00:22:01Z</time>
      </trkpt>
      <trkpt lat="45.83178" lon="5.9532">
        <ele>358</ele>
        <time>2010-01-01T00:22:17Z</time>
      </trkpt>
      <trkpt lat="45.83159" lon="5.95323">
        <ele>358</ele>
        <time>2010-01-01T00:22:25Z</time>
      </trkpt>
      <trkpt lat="45.82805" lon="5.95344">
        <ele>360</ele>
        <time>2010-01-01T00:24:46Z</time>
      </trkpt>
      <trkpt lat="45.82663" lon="5.95355">
        <ele>360</ele>
        <time>2010-01-01T00:25:43Z</time>
      </trkpt>
      <trkpt lat="45.82379" lon="5.95378">
        <ele>363</ele>
        <time>2010-01-01T00:27:37Z</time>
      </trkpt>
      <trkpt lat="45.82114" lon="5.95399">
        <ele>360</ele>
        <time>2010-01-01T00:29:23Z</time>
      </trkpt>
      <trkpt lat="45.81974" lon="5.95412">
        <ele>362</ele>
        <time>2010-01-01T00:30:20Z</time>
      </trkpt>
      <trkpt lat="45.81937" lon="5.95436">
        <ele>364</ele>
        <time>2010-01-01T00:30:36Z</time>
      </trkpt>
      <trkpt lat="45.81906" lon="5.95474">
        <ele>368</ele>
        <time>2010-01-01T00:30:52Z</time>
      </trkpt>
      <trkpt lat="45.81885" lon="5.95488">
        <ele>369</ele>
        <time>2010-01-01T00:31:01Z</time>
      </trkpt>
      <trkpt lat="45.81845" lon="5.95485">
        <ele>370</ele>
        <time>2010-01-01T00:31:17Z</time>
      </trkpt>
      <trkpt lat="45.81763" lon="5.95485">
        <ele>371</ele>
        <time>2010-01-01T00:31:50Z</time>
      </trkpt>
      <trkpt lat="45.8174" lon="5.95438">
        <ele>369</ele>
        <time>2010-01-01T00:32:06Z</time>
      </trkpt>
      <trkpt lat="45.81612" lon="5.95453">
        <ele>370</ele>
        <time>2010-01-01T00:32:58Z</time>
      </trkpt>
      <trkpt lat="45.81492" lon="5.95456">
        <ele>367</ele>
        <time>2010-01-01T00:33:46Z</time>
      </trkpt>
      <trkpt lat="45.81452" lon="5.95462">
        <ele>365</ele>
        <time>2010-01-01T00:34:02Z</time>
      </trkpt>
      <trkpt lat="45.81449" lon="5.95489">
        <ele>364</ele>
        <time>2010-01-01T00:34:09Z</time>
      </trkpt>
      <trkpt lat="45.81455" lon="5.95605">
        <ele>363</ele>
        <time>2010-01-01T00:34:42Z</time>
      </trkpt>
      <trkpt lat="45.81435" lon="5.95788">
        <ele>362</ele>
        <time>2010-01-01T00:35:33Z</time>
      </trkpt>
      <trkpt lat="45.81422" lon="5.95844">
        <ele>362</ele>
        <time>2010-01-01T00:35:50Z</time>
      </trkpt>
      <trkpt lat="45.81401" lon="5.95884">
        <ele>362</ele>
        <time>2010-01-01T00:36:04Z</time>
      </trkpt>
      <trkpt lat="45.81358" lon="5.95866">
        <ele>361</ele>
        <time>2010-01-01T00:36:22Z</time>
      </trkpt>
      <trkpt lat="45.81255" lon="5.95803">
        <ele>359</ele>
        <time>2010-01-01T00:37:07Z</time>
      </trkpt>
      <trkpt lat="45.81174" lon="5.95782">
        <ele>360</ele>
        <time>2010-01-01T00:37:40Z</time>
      </trkpt>
      <trkpt lat="45.8109" lon="5.95702">
        <ele>360</ele>
        <time>2010-01-01T00:38:20Z</time>
      </trkpt>
      <trkpt lat="45.81031" lon="5.95665">
        <ele>360</ele>
        <time>2010-01-01T00:38:46Z</time>
      </trkpt>
      <trkpt lat="45.80951" lon="5.95586">
        <ele>360</ele>
        <time>2010-01-01T00:39:25Z</time>
      </trkpt>
      <trkpt lat="45.80929" lon="5.95579">
        <ele>360</ele>
        <time>2010-01-01T00:39:33Z</time>
      </trkpt>
      <trkpt lat="45.80888" lon="5.95588">
        <ele>361</ele>
        <time>2010-01-01T00:39:50Z</time>
      </trkpt>
      <trkpt lat="45.80869" lon="5.95584">
        <ele>360</ele>
        <time>2010-01-01T00:39:58Z</time>
      </trkpt>
      <trkpt lat="45.80862" lon="5.95555">
        <ele>360</ele>
        <time>2010-01-01T00:40:07Z</time>
      </trkpt>
      <trkpt lat="45.80843" lon="5.95538">
        <ele>359</ele>
        <time>2010-01-01T00:40:16Z</time>
      </trkpt>
      <trkpt lat="45.80825" lon="5.9553">
        <ele>359</ele>
        <time>2010-01-01T00:40:23Z</time>
      </trkpt>
      <trkpt lat="45.80786" lon="5.95537">
        <ele>359</ele>
        <time>2010-01-01T00:40:39Z</time>
      </trkpt>
      <trkpt lat="45.80721" lon="5.95562">
        <ele>359</ele>
        <time>2010-01-01T00:41:06Z</time>
      </trkpt>
      <trkpt lat="45.80639" lon="5.95608">
        <ele>359</ele>
        <time>2010-01-01T00:41:41Z</time>
      </trkpt>
      <trkpt lat="45.80575" lon="5.95622">
        <ele>358</ele>
        <time>2010-01-01T00:42:07Z</time>
      </trkpt>
      <trkpt lat="45.80468" lon="5.95617">
        <ele>357</ele>
        <time>2010-01-01T00:42:50Z</time>
      </trkpt>
      <trkpt lat="45.80382" lon="5.95587">
        <ele>356</ele>
        <time>2010-01-01T00:43:25Z</time>
      </trkpt>
      <trkpt lat="45.80321" lon="5.95549">
        <ele>356</ele>
        <time>2010-01-01T00:43:52Z</time>
      </trkpt>
      <trkpt lat="45.80251" lon="5.9549">
        <ele>355</ele>
        <time>2010-01-01T00:44:24Z</time>
      </trkpt>
      <trkpt lat="45.80242" lon="5.9547">
        <ele>355</ele>
        <time>2010-01-01T00:44:31Z</time>
      </trkpt>
      <trkpt lat="45.80245" lon="5.95441">
        <ele>355</ele>
        <time>2010-01-01T00:44:39Z</time>
      </trkpt>
      <trkpt lat="45.79971" lon="5.95115">
        <ele>356</ele>
        <time>2010-01-01T00:47:02Z</time>
      </trkpt>
      <trkpt lat="45.79859" lon="5.9501">
        <ele>357</ele>
        <time>2010-01-01T00:47:55Z</time>
      </trkpt>
      <trkpt lat="45.79766" lon="5.9494">
        <ele>356</ele>
        <time>2010-01-01T00:48:37Z</time>
      </trkpt>
      <trkpt lat="45.79748" lon="5.94942">
        <ele>355</ele>
        <time>2010-01-01T00:48:44Z</time>
      </trkpt>
      <trkpt lat="45.79734" lon="5.94958">
        <ele>354</ele>
        <time>2010-01-01T00:48:52Z</time>
      </trkpt>
      <trkpt lat="45.79673" lon="5.94911">
        <ele>355</ele>
        <time>2010-01-01T00:49:19Z</time>
      </trkpt>
      <trkpt lat="45.79597" lon="5.94875">
        <ele>353</ele>
        <time>2010-01-01T00:49:51Z</time>
      </trkpt>
      <trkpt lat="45.7944" lon="5.94829">
        <ele>354</ele>
        <time>2010-01-01T00:50:56Z</time>
      </trkpt>
      <trkpt lat="45.79285" lon="5.94816">
        <ele>351</ele>
        <time>2010-01-01T00:51:58Z</time>
      </trkpt>
      <trkpt lat="45.79001" lon="5.9483">
        <ele>355</ele>
        <time>2010-01-01T00:53:51Z</time>
      </trkpt>
      <trkpt lat="45.78786" lon="5.94845">
        <ele>354</ele>
        <time>2010-01-01T00:55:17Z</time>
      </trkpt>
      <trkpt lat="45.78678" lon="5.94855">
        <ele>353</ele>
        <time>2010-01-01T00:56:01Z</time>
      </trkpt>
      <trkpt lat="45.78639" lon="5.94876">
        <ele>353</ele>
        <time>2010-01-01T00:56:18Z</time>
      </trkpt>
      <trkpt lat="45.7851" lon="5.94888">
        <ele>353</ele>
        <time>2010-01-01T00:57:09Z</time>
      </trkpt>
      <trkpt lat="45.78471" lon="5.9492">
        <ele>352</ele>
        <time>2010-01-01T00:57:27Z</time>
      </trkpt>
      <trkpt lat="45.78439" lon="5.94971">
        <ele>352</ele>
        <time>2010-01-01T00:57:46Z</time>
      </trkpt>
      <trkpt lat="45.78422" lon="5.94962">
        <ele>352</ele>
        <time>2010-01-01T00:57:53Z</time>
      </trkpt>
      <trkpt lat="45.78369" lon="5.94901">
        <ele>351</ele>
        <time>2010-01-01T00:58:21Z</time>
      </trkpt>
      <trkpt lat="45.78351" lon="5.94892">
        <ele>351</ele>
        <time>2010-01-01T00:58:28Z</time>
      </trkpt>
      <trkpt lat="45.7833" lon="5.94853">
        <ele>352</ele>
        <time>2010-01-01T00:58:42Z</time>
      </trkpt>
      <trkpt lat="45.78153" lon="5.9487">
        <ele>352</ele>
        <time>2010-01-01T00:59:53Z</time>
      </trkpt>
      <trkpt lat="45.78107" lon="5.94869">
        <ele>353</ele>
        <time>2010-01-01T01:00:12Z</time>
      </trkpt>
      <trkpt lat="45.78087" lon="5.94854">
        <ele>352</ele>
        <time>2010-01-01T01:00:21Z</time>
      </trkpt>
      <trkpt lat="45.78078" lon="5.94829">
        <ele>352</ele>
        <time>2010-01-01T01:00:29Z</time>
      </trkpt>
      <trkpt lat="45.78065" lon="5.94811">
        <ele>352</ele>
        <time>2010-01-01T01:00:36Z</time>
      </trkpt>
      <trkpt lat="45.78019" lon="5.94823">
        <ele>351</ele>
        <time>2010-01-01T01:00:54Z</time>
      </trkpt>
      <trkpt lat="45.77971" lon="5.94812">
        <ele>349</ele>
        <time>2010-01-01T01:01:14Z</time>
      </trkpt>
      <trkpt lat="45.77811" lon="5.9473">
        <ele>358</ele>
        <time>2010-01-01T01:02:22Z</time>
      </trkpt>
      <trkpt lat="45.77791" lon="5.9473">
        <ele>358</ele>
        <time>2010-01-01T01:02:30Z</time>
      </trkpt>
      <trkpt lat="45.77753" lon="5.94745">
        <ele>359</ele>
        <time>2010-01-01T01:02:46Z</time>
      </trkpt>
      <trkpt lat="45.77711" lon="5.94745">
        <ele>360</ele>
        <time>2010-01-01T01:03:02Z</time>
      </trkpt>
      <trkpt lat="45.77647" lon="5.94736">
        <ele>362</ele>
        <time>2010-01-01T01:03:28Z</time>
      </trkpt>
      <trkpt lat="45.77586" lon="5.94727">
        <ele>363</ele>
        <time>2010-01-01T01:03:53Z</time>
      </trkpt>
      <trkpt lat="45.77546" lon="5.94715">
        <ele>361</ele>
        <time>2010-01-01T01:04:09Z</time>
      </trkpt>
      <trkpt lat="45.77508" lon="5.94719">
        <ele>359</ele>
        <time>2010-01-01T01:04:24Z</time>
      </trkpt>
      <trkpt lat="45.77472" lon="5.94744">
        <ele>357</ele>
        <time>2010-01-01T01:04:40Z</time>
      </trkpt>
      <trkpt lat="45.77435" lon="5.94787">
        <ele>354</ele>
        <time>2010-01-01T01:04:59Z</time>
      </trkpt>
      <trkpt lat="45.77414" lon="5.948">
        <ele>352</ele>
        <time>2010-01-01T01:05:09Z</time>
      </trkpt>
      <trkpt lat="45.77394" lon="5.94803">
        <ele>352</ele>
        <time>2010-01-01T01:05:17Z</time>
      </trkpt>
      <trkpt lat="45.77307" lon="5.94776">
        <ele>350</ele>
        <time>2010-01-01T01:05:52Z</time>
      </trkpt>
      <trkpt lat="45.77266" lon="5.94801">
        <ele>348</ele>
        <time>2010-01-01T01:06:10Z</time>
      </trkpt>
      <trkpt lat="45.77222" lon="5.94811">
        <ele>347</ele>
        <time>2010-01-01T01:06:28Z</time>
      </trkpt>
      <trkpt lat="45.77121" lon="5.94815">
        <ele>346</ele>
        <time>2010-01-01T01:07:08Z</time>
      </trkpt>
      <trkpt lat="45.77077" lon="5.9482">
        <ele>347</ele>
        <time>2010-01-01T01:07:26Z</time>
      </trkpt>
      <trkpt lat="45.77032" lon="5.94835">
        <ele>348</ele>
        <time>2010-01-01T01:07:45Z</time>
      </trkpt>
      <trkpt lat="45.76989" lon="5.94869">
        <ele>348</ele>
        <time>2010-01-01T01:08:04Z</time>
      </trkpt>
      <trkpt lat="45.76903" lon="5.94907">
        <ele>347</ele>
        <time>2010-01-01T01:08:40Z</time>
      </trkpt>
      <trkpt lat="45.76844" lon="5.94956">
        <ele>346</ele>
        <time>2010-01-01T01:09:08Z</time>
      </trkpt>
      <trkpt lat="45.76788" lon="5.94985">
        <ele>345</ele>
        <time>2010-01-01T01:09:31Z</time>
      </trkpt>
      <trkpt lat="45.7677" lon="5.94985">
        <ele>346</ele>
        <time>2010-01-01T01:09:39Z</time>
      </trkpt>
      <trkpt lat="45.76751" lon="5.94972">
        <ele>348</ele>
        <time>2010-01-01T01:09:47Z</time>
      </trkpt>
      <trkpt lat="45.76741" lon="5.94946">
        <ele>351</ele>
        <time>2010-01-01T01:09:55Z</time>
      </trkpt>
      <trkpt lat="45.76725" lon="5.9493">
        <ele>352</ele>
        <time>2010-01-01T01:10:03Z</time>
      </trkpt>
      <trkpt lat="45.76688" lon="5.94921">
        <ele>352</ele>
        <time>2010-01-01T01:10:18Z</time>
      </trkpt>
      <trkpt lat="45.76656" lon="5.94889">
        <ele>354</ele>
        <time>2010-01-01T01:10:34Z</time>
      </trkpt>
      <trkpt lat="45.76643" lon="5.9484">
        <ele>358</ele>
        <time>2010-01-01T01:10:49Z</time>
      </trkpt>
      <trkpt lat="45.76566" lon="5.94803">
        <ele>360</ele>
        <time>2010-01-01T01:11:21Z</time>
      </trkpt>
      <trkpt lat="45.76509" lon="5.94767">
        <ele>363</ele>
        <time>2010-01-01T01:11:46Z</time>
      </trkpt>
      <trkpt lat="45.76422" lon="5.94696">
        <ele>368</ele>
        <time>2010-01-01T01:12:26Z</time>
      </trkpt>
      <trkpt lat="45.76392" lon="5.94661">
        <ele>369</ele>
        <time>2010-01-01T01:12:42Z</time>
      </trkpt>
      <trkpt lat="45.76322" lon="5.94556">
        <ele>376</ele>
        <time>2010-01-01T01:13:22Z</time>
      </trkpt>
      <trkpt lat="45.76195" lon="5.94425">
        <ele>385</ele>
        <time>2010-01-01T01:14:25Z</time>
      </trkpt>
      <trkpt lat="45.7617" lon="5.94392">
        <ele>388</ele>
        <time>2010-01-01T01:14:38Z</time>
      </trkpt>
      <trkpt lat="45.76164" lon="5.94368">
        <ele>389</ele>
        <time>2010-01-01T01:14:46Z</time>
      </trkpt>
      <trkpt lat="45.76164" lon="5.94311">
        <ele>392</ele>
        <time>2010-01-01T01:15:01Z</time>
      </trkpt>
      <trkpt lat="45.76169" lon="5.94255">
        <ele>395</ele>
        <time>2010-01-01T01:15:17Z</time>
      </trkpt>
      <trkpt lat="45.76207" lon="5.9409">
        <ele>399</ele>
        <time>2010-01-01T01:16:06Z</time>
      </trkpt>
      <trkpt lat="45.76205" lon="5.94067">
        <ele>400</ele>
        <time>2010-01-01T01:16:12Z</time>
      </trkpt>
      <trkpt lat="45.76168" lon="5.94051">
        <ele>400</ele>
        <time>2010-01-01T01:16:28Z</time>
      </trkpt>
      <trkpt lat="45.76109" lon="5.94026">
        <ele>402</ele>
        <time>2010-01-01T01:16:52Z</time>
      </trkpt>
      <trkpt lat="45.76037" lon="5.93981">
        <ele>405</ele>
        <time>2010-01-01T01:17:24Z</time>
      </trkpt>
      <trkpt lat="45.75859" lon="5.93827">
        <ele>407</ele>
        <time>2010-01-01T01:18:47Z</time>
      </trkpt>
      <trkpt lat="45.75952" lon="5.93602">
        <ele>409</ele>
        <time>2010-01-01T01:20:00Z</time>
      </trkpt>
      <trkpt lat="45.75982" lon="5.93454">
        <ele>408</ele>
        <time>2010-01-01T01:20:43Z</time>
      </trkpt>
      <trkpt lat="45.75999" lon="5.9334">
        <ele>404</ele>
        <time>2010-01-01T01:21:16Z</time>
      </trkpt>
      <trkpt lat="45.75984" lon="5.93233">
        <ele>401</ele>
        <time>2010-01-01T01:21:46Z</time>
      </trkpt>
      <trkpt lat="45.76003" lon="5.93187">
        <ele>402</ele>
        <time>2010-01-01T01:22:01Z</time>
      </trkpt>
      <trkpt lat="45.76015" lon="5.93146">
        <ele>403</ele>
        <time>2010-01-01T01:22:14Z</time>
      </trkpt>
      <trkpt lat="45.76027" lon="5.93105">
        <ele>404</ele>
        <time>2010-01-01T01:22:26Z</time>
      </trkpt>
      <trkpt lat="45.7605" lon="5.93124">
        <ele>404</ele>
        <time>2010-01-01T01:22:37Z</time>
      </trkpt>
      <trkpt lat="45.76206" lon="5.93262">
        <ele>405</ele>
        <time>2010-01-01T01:23:50Z</time>
      </trkpt>
      <trkpt lat="45.76295" lon="5.93329">
        <ele>406</ele>
        <time>2010-01-01T01:24:30Z</time>
      </trkpt>
      <trkpt lat="45.76334" lon="5.93345">
        <ele>407</ele>
        <time>2010-01-01T01:24:47Z</time>
      </trkpt>
      <trkpt lat="45.76393" lon="5.93334">
        <ele>407</ele>
        <time>2010-01-01T01:25:11Z</time>
      </trkpt>
      <trkpt lat="45.76415" lon="5.93345">
        <ele>405</ele>
        <time>2010-01-01T01:25:20Z</time>
      </trkpt>
      <trkpt lat="45.76458" lon="5.93372">
        <ele>402</ele>
        <time>2010-01-01T01:25:39Z</time>
      </trkpt>
      <trkpt lat="45.76501" lon="5.93385">
        <ele>405</ele>
        <time>2010-01-01T01:25:56Z</time>
      </trkpt>
      <trkpt lat="45.76573" lon="5.93379">
        <ele>415</ele>
        <time>2010-01-01T01:26:25Z</time>
      </trkpt>
      <trkpt lat="45.76594" lon="5.93374">
        <ele>416</ele>
        <time>2010-01-01T01:26:34Z</time>
      </trkpt>
      <trkpt lat="45.76633" lon="5.93369">
        <ele>420</ele>
        <time>2010-01-01T01:26:50Z</time>
      </trkpt>
      <trkpt lat="45.76738" lon="5.9338">
        <ele>428</ele>
        <time>2010-01-01T01:27:32Z</time>
      </trkpt>
      <trkpt lat="45.7682" lon="5.93405">
        <ele>430</ele>
        <time>2010-01-01T01:28:05Z</time>
      </trkpt>
      <trkpt lat="45.76935" lon="5.93427">
        <ele>429</ele>
        <time>2010-01-01T01:28:51Z</time>
      </trkpt>
      <trkpt lat="45.77019" lon="5.93446">
        <ele>429</ele>
        <time>2010-01-01T01:29:26Z</time>
      </trkpt>
      <trkpt lat="45.77078" lon="5.93475">
        <ele>429</ele>
        <time>2010-01-01T01:29:51Z</time>
      </trkpt>
      <trkpt lat="45.77274" lon="5.93643">
        <ele>430</ele>
        <time>2010-01-01T01:31:22Z</time>
      </trkpt>
      <trkpt lat="45.77322" lon="5.93665">
        <ele>431</ele>
        <time>2010-01-01T01:31:42Z</time>
      </trkpt>
      <trkpt lat="45.77371" lon="5.93702">
        <ele>430</ele>
        <time>2010-01-01T01:32:04Z</time>
      </trkpt>
      <trkpt lat="45.77394" lon="5.93701">
        <ele>430</ele>
        <time>2010-01-01T01:32:13Z</time>
      </trkpt>
      <trkpt lat="45.77423" lon="5.93617">
        <ele>431</ele>
        <time>2010-01-01T01:32:40Z</time>
      </trkpt>
      <trkpt lat="45.77463" lon="5.93445">
        <ele>430</ele>
        <time>2010-01-01T01:33:30Z</time>
      </trkpt>
      <trkpt lat="45.77466" lon="5.93416">
        <ele>431</ele>
        <time>2010-01-01T01:33:38Z</time>
      </trkpt>
      <trkpt lat="45.77462" lon="5.93301">
        <ele>432</ele>
        <time>2010-01-01T01:34:11Z</time>
      </trkpt>
      <trkpt lat="45.77471" lon="5.93243">
        <ele>433</ele>
        <time>2010-01-01T01:34:27Z</time>
      </trkpt>
      <trkpt lat="45.77482" lon="5.93222">
        <ele>434</ele>
        <time>2010-01-01T01:34:34Z</time>
      </trkpt>
      <trkpt lat="45.77516" lon="5.93244">
        <ele>433</ele>
        <time>2010-01-01T01:34:49Z</time>
      </trkpt>
      <trkpt lat="45.77562" lon="5.93309">
        <ele>432</ele>
        <time>2010-01-01T01:35:15Z</time>
      </trkpt>
      <trkpt lat="45.77586" lon="5.93357">
        <ele>432</ele>
        <time>2010-01-01T01:35:32Z</time>
      </trkpt>
      <trkpt lat="45.77619" lon="5.93401">
        <ele>432</ele>
        <time>2010-01-01T01:35:50Z</time>
      </trkpt>
      <trkpt lat="45.77696" lon="5.93464">
        <ele>432</ele>
        <time>2010-01-01T01:36:25Z</time>
      </trkpt>
      <trkpt lat="45.7782" lon="5.93585">
        <ele>429</ele>
        <time>2010-01-01T01:37:25Z</time>
      </trkpt>
      <trkpt lat="45.77888" lon="5.9366">
        <ele>424</ele>
        <time>2010-01-01T01:37:59Z</time>
      </trkpt>
      <trkpt lat="45.77968" lon="5.93769">
        <ele>417</ele>
        <time>2010-01-01T01:38:44Z</time>
      </trkpt>
      <trkpt lat="45.77987" lon="5.93789">
        <ele>415</ele>
        <time>2010-01-01T01:38:53Z</time>
      </trkpt>
      <trkpt lat="45.78025" lon="5.93813">
        <ele>411</ele>
        <time>2010-01-01T01:39:10Z</time>
      </trkpt>
      <trkpt lat="45.78039" lon="5.93795">
        <ele>410</ele>
        <time>2010-01-01T01:39:17Z</time>
      </trkpt>
      <trkpt lat="45.78056" lon="5.93743">
        <ele>407</ele>
        <time>2010-01-01T01:39:33Z</time>
      </trkpt>
      <trkpt lat="45.78065" lon="5.93657">
        <ele>397</ele>
        <time>2010-01-01T01:39:58Z</time>
      </trkpt>
      <trkpt lat="45.78102" lon="5.93544">
        <ele>378</ele>
        <time>2010-01-01T01:40:33Z</time>
      </trkpt>
      <trkpt lat="45.78131" lon="5.93495">
        <ele>376</ele>
        <time>2010-01-01T01:40:50Z</time>
      </trkpt>
      <trkpt lat="45.78137" lon="5.93468">
        <ele>379</ele>
        <time>2010-01-01T01:40:58Z</time>
      </trkpt>
      <trkpt lat="45.78157" lon="5.93463">
        <ele>382</ele>
        <time>2010-01-01T01:41:06Z</time>
      </trkpt>
      <trkpt lat="45.78156" lon="5.93445">
        <ele>384</ele>
        <time>2010-01-01T01:41:12Z</time>
      </trkpt>
      <trkpt lat="45.78141" lon="5.93421">
        <ele>386</ele>
        <time>2010-01-01T01:41:20Z</time>
      </trkpt>
      <trkpt lat="45.78072" lon="5.93365">
        <ele>386</ele>
        <time>2010-01-01T01:41:52Z</time>
      </trkpt>
      <trkpt lat="45.77982" lon="5.93237">
        <ele>385</ele>
        <time>2010-01-01T01:42:43Z</time>
      </trkpt>
      <trkpt lat="45.77932" lon="5.93179">
        <ele>384</ele>
        <time>2010-01-01T01:43:08Z</time>
      </trkpt>
      <trkpt lat="45.779" lon="5.93142">
        <ele>384</ele>
        <time>2010-01-01T01:43:25Z</time>
      </trkpt>
      <trkpt lat="45.77873" lon="5.93097">
        <ele>387</ele>
        <time>2010-01-01T01:43:42Z</time>
      </trkpt>
      <trkpt lat="45.77793" lon="5.92903">
        <ele>390</ele>
        <time>2010-01-01T01:44:44Z</time>
      </trkpt>
      <trkpt lat="45.77796" lon="5.92886">
        <ele>391</ele>
        <time>2010-01-01T01:44:49Z</time>
      </trkpt>
      <trkpt lat="45.77835" lon="5.92899">
        <ele>396</ele>
        <time>2010-01-01T01:45:05Z</time>
      </trkpt>
      <trkpt lat="45.77871" lon="5.92924">
        <ele>401</ele>
        <time>2010-01-01T01:45:21Z</time>
      </trkpt>
      <trkpt lat="45.77923" lon="5.92989">
        <ele>404</ele>
        <time>2010-01-01T01:45:49Z</time>
      </trkpt>
      <trkpt lat="45.77956" lon="5.93022">
        <ele>405</ele>
        <time>2010-01-01T01:46:05Z</time>
      </trkpt>
      <trkpt lat="45.77972" lon="5.93013">
        <ele>409</ele>
        <time>2010-01-01T01:46:12Z</time>
      </trkpt>
      <trkpt lat="45.77984" lon="5.92993">
        <ele>414</ele>
        <time>2010-01-01T01:46:19Z</time>
      </trkpt>
      <trkpt lat="45.78002" lon="5.92991">
        <ele>417</ele>
        <time>2010-01-01T01:46:26Z</time>
      </trkpt>
      <trkpt lat="45.78037" lon="5.93014">
        <ele>418</ele>
        <time>2010-01-01T01:46:42Z</time>
      </trkpt>
      <trkpt lat="45.78074" lon="5.93026">
        <ele>423</ele>
        <time>2010-01-01T01:46:57Z</time>
      </trkpt>
      <trkpt lat="45.78153" lon="5.93022">
        <ele>431</ele>
        <time>2010-01-01T01:47:29Z</time>
      </trkpt>
      <trkpt lat="45.78171" lon="5.9293">
        <ele>439</ele>
        <time>2010-01-01T01:47:55Z</time>
      </trkpt>
      <trkpt lat="45.78149" lon="5.92855">
        <ele>443</ele>
        <time>2010-01-01T01:48:18Z</time>
      </trkpt>
      <trkpt lat="45.78138" lon="5.92804">
        <ele>445</ele>
        <time>2010-01-01T01:48:33Z</time>
      </trkpt>
      <trkpt lat="45.78146" lon="5.92584">
        <ele>454</ele>
        <time>2010-01-01T01:49:35Z</time>
      </trkpt>
      <trkpt lat="45.78138" lon="5.9257">
        <ele>454</ele>
        <time>2010-01-01T01:49:39Z</time>
      </trkpt>
      <trkpt lat="45.78044" lon="5.92527">
        <ele>455</ele>
        <time>2010-01-01T01:50:19Z</time>
      </trkpt>
      <trkpt lat="45.78034" lon="5.92505">
        <ele>455</ele>
        <time>2010-01-01T01:50:26Z</time>
      </trkpt>
      <trkpt lat="45.78023" lon="5.92454">
        <ele>455</ele>
        <time>2010-01-01T01:50:41Z</time>
      </trkpt>
      <trkpt lat="45.77955" lon="5.92392">
        <ele>457</ele>
        <time>2010-01-01T01:51:13Z</time>
      </trkpt>
      <trkpt lat="45.77971" lon="5.92345">
        <ele>460</ele>
        <time>2010-01-01T01:51:28Z</time>
      </trkpt>
      <trkpt lat="45.77973" lon="5.92318">
        <ele>462</ele>
        <time>2010-01-01T01:51:36Z</time>
      </trkpt>
      <trkpt lat="45.77971" lon="5.9229">
        <ele>465</ele>
        <time>2010-01-01T01:51:43Z</time>
      </trkpt>
      <trkpt lat="45.7796" lon="5.92267">
        <ele>467</ele>
        <time>2010-01-01T01:51:51Z</time>
      </trkpt>
      <trkpt lat="45.77961" lon="5.92241">
        <ele>470</ele>
        <time>2010-01-01T01:51:59Z</time>
      </trkpt>
      <trkpt lat="45.77976" lon="5.92224">
        <ele>473</ele>
        <time>2010-01-01T01:52:06Z</time>
      </trkpt>
      <trkpt lat="45.78021" lon="5.92238">
        <ele>473</ele>
        <time>2010-01-01T01:52:25Z</time>
      </trkpt>
      <trkpt lat="45.78044" lon="5.92238">
        <ele>473</ele>
        <time>2010-01-01T01:52:34Z</time>
      </trkpt>
      <trkpt lat="45.78161" lon="5.92197">
        <ele>482</ele>
        <time>2010-01-01T01:53:22Z</time>
      </trkpt>
      <trkpt lat="45.78234" lon="5.92158">
        <ele>486</ele>
        <time>2010-01-01T01:53:53Z</time>
      </trkpt>
      <trkpt lat="45.78254" lon="5.92119">
        <ele>493</ele>
        <time>2010-01-01T01:54:07Z</time>
      </trkpt>
      <trkpt lat="45.78274" lon="5.92121">
        <ele>493</ele>
        <time>2010-01-01T01:54:15Z</time>
      </trkpt>
      <trkpt lat="45.78307" lon="5.92108">
        <ele>494</ele>
        <time>2010-01-01T01:54:28Z</time>
      </trkpt>
      <trkpt lat="45.78314" lon="5.92136">
        <ele>490</ele>
        <time>2010-01-01T01:54:37Z</time>
      </trkpt>
      <trkpt lat="45.7835" lon="5.92147">
        <ele>488</ele>
        <time>2010-01-01T01:54:52Z</time>
      </trkpt>
      <trkpt lat="45.78389" lon="5.92126">
        <ele>492</ele>
        <time>2010-01-01T01:55:08Z</time>
      </trkpt>
      <trkpt lat="45.78408" lon="5.9214">
        <ele>491</ele>
        <time>2010-01-01T01:55:17Z</time>
      </trkpt>
      <trkpt lat="45.78449" lon="5.92129">
        <ele>495</ele>
        <time>2010-01-01T01:55:33Z</time>
      </trkpt>
      <trkpt lat="45.78492" lon="5.92106">
        <ele>504</ele>
        <time>2010-01-01T01:55:51Z</time>
      </trkpt>
      <trkpt lat="45.78586" lon="5.92093">
        <ele>511</ele>
        <time>2010-01-01T01:56:30Z</time>
      </trkpt>
      <trkpt lat="45.78614" lon="5.92056">
        <ele>518</ele>
        <time>2010-01-01T01:56:45Z</time>
      </trkpt>
      <trkpt lat="45.78648" lon="5.92062">
        <ele>520</ele>
        <time>2010-01-01T01:56:58Z</time>
      </trkpt>
      <trkpt lat="45.78656" lon="5.92043">
        <ele>523</ele>
        <time>2010-01-01T01:57:05Z</time>
      </trkpt>
      <trkpt lat="45.78661" lon="5.92018">
        <ele>526</ele>
        <time>2010-01-01T01:57:12Z</time>
      </trkpt>
      <trkpt lat="45.78677" lon="5.92004">
        <ele>529</ele>
        <time>2010-01-01T01:57:19Z</time>
      </trkpt>
      <trkpt lat="45.78717" lon="5.92005">
        <ele>530</ele>
        <time>2010-01-01T01:57:35Z</time>
      </trkpt>
      <trkpt lat="45.78891" lon="5.92114">
        <ele>525</ele>
        <time>2010-01-01T01:58:51Z</time>
      </trkpt>
      <trkpt lat="45.79018" lon="5.92235">
        <ele>515</ele>
        <time>2010-01-01T01:59:52Z</time>
      </trkpt>
      <trkpt lat="45.79101" lon="5.92282">
        <ele>510</ele>
        <time>2010-01-01T02:00:28Z</time>
      </trkpt>
      <trkpt lat="45.79259" lon="5.92363">
        <ele>500</ele>
        <time>2010-01-01T02:01:35Z</time>
      </trkpt>
      <trkpt lat="45.79321" lon="5.92381">
        <ele>500</ele>
        <time>2010-01-01T02:02:00Z</time>
      </trkpt>
      <trkpt lat="45.7937" lon="5.92337">
        <ele>510</ele>
        <time>2010-01-01T02:02:24Z</time>
      </trkpt>
      <trkpt lat="45.79427" lon="5.92326">
        <ele>508</ele>
        <time>2010-01-01T02:02:46Z</time>
      </trkpt>
      <trkpt lat="45.79444" lon="5.9231">
        <ele>508</ele>
        <time>2010-01-01T02:02:55Z</time>
      </trkpt>
      <trkpt lat="45.7945" lon="5.92285">
        <ele>511</ele>
        <time>2010-01-01T02:03:02Z</time>
      </trkpt>
      <trkpt lat="45.7945" lon="5.92227">
        <ele>518</ele>
        <time>2010-01-01T02:03:18Z</time>
      </trkpt>
      <trkpt lat="45.79476" lon="5.92176">
        <ele>514</ele>
        <time>2010-01-01T02:03:36Z</time>
      </trkpt>
      <trkpt lat="45.79484" lon="5.92149">
        <ele>515</ele>
        <time>2010-01-01T02:03:44Z</time>
      </trkpt>
      <trkpt lat="45.79493" lon="5.92061">
        <ele>523</ele>
        <time>2010-01-01T02:04:09Z</time>
      </trkpt>
      <trkpt lat="45.7949" lon="5.92031">
        <ele>528</ele>
        <time>2010-01-01T02:04:17Z</time>
      </trkpt>
      <trkpt lat="45.79491" lon="5.92003">
        <ele>528</ele>
        <time>2010-01-01T02:04:25Z</time>
      </trkpt>
      <trkpt lat="45.79478" lon="5.91983">
        <ele>531</ele>
        <time>2010-01-01T02:04:33Z</time>
      </trkpt>
      <trkpt lat="45.7944" lon="5.91996">
        <ele>545</ele>
        <time>2010-01-01T02:04:48Z</time>
      </trkpt>
      <trkpt lat="45.79383" lon="5.91957">
        <ele>553</ele>
        <time>2010-01-01T02:05:14Z</time>
      </trkpt>
      <trkpt lat="45.79388" lon="5.91982">
        <ele>556</ele>
        <time>2010-01-01T02:05:21Z</time>
      </trkpt>
      <trkpt lat="45.79366" lon="5.92002">
        <ele>562</ele>
        <time>2010-01-01T02:05:31Z</time>
      </trkpt>
      <trkpt lat="45.79348" lon="5.92008">
        <ele>564</ele>
        <time>2010-01-01T02:05:39Z</time>
      </trkpt>
      <trkpt lat="45.79324" lon="5.92005">
        <ele>566</ele>
        <time>2010-01-01T02:05:49Z</time>
      </trkpt>
      <trkpt lat="45.79185" lon="5.91929">
        <ele>587</ele>
        <time>2010-01-01T02:06:48Z</time>
      </trkpt>
      <trkpt lat="45.79139" lon="5.91909">
        <ele>591</ele>
        <time>2010-01-01T02:07:07Z</time>
      </trkpt>
      <trkpt lat="45.79106" lon="5.91868">
        <ele>598</ele>
        <time>2010-01-01T02:07:25Z</time>
      </trkpt>
      <trkpt lat="45.79082" lon="5.9181">
        <ele>606</ele>
        <time>2010-01-01T02:07:44Z</time>
      </trkpt>
      <trkpt lat="45.79039" lon="5.91786">
        <ele>607</ele>
        <time>2010-01-01T02:08:02Z</time>
      </trkpt>
      <trkpt lat="45.78976" lon="5.91771">
        <ele>604</ele>
        <time>2010-01-01T02:08:28Z</time>
      </trkpt>
      <trkpt lat="45.7895" lon="5.91724">
        <ele>610</ele>
        <time>2010-01-01T02:08:45Z</time>
      </trkpt>
      <trkpt lat="45.78916" lon="5.91679">
        <ele>618</ele>
        <time>2010-01-01T02:09:03Z</time>
      </trkpt>
      <trkpt lat="45.78831" lon="5.91591">
        <ele>633</ele>
        <time>2010-01-01T02:09:45Z</time>
      </trkpt>
      <trkpt lat="45.78823" lon="5.91526">
        <ele>642</ele>
        <time>2010-01-01T02:10:04Z</time>
      </trkpt>
      <trkpt lat="45.78812" lon="5.91492">
        <ele>645</ele>
        <time>2010-01-01T02:10:14Z</time>
      </trkpt>
      <trkpt lat="45.78796" lon="5.91475">
        <ele>648</ele>
        <time>2010-01-01T02:10:22Z</time>
      </trkpt>
      <trkpt lat="45.78755" lon="5.91478">
        <ele>648</ele>
        <time>2010-01-01T02:10:38Z</time>
      </trkpt>
      <trkpt lat="45.78735" lon="5.91466">
        <ele>650</ele>
        <time>2010-01-01T02:10:47Z</time>
      </trkpt>
      <trkpt lat="45.78675" lon="5.91482">
        <ele>651</ele>
        <time>2010-01-01T02:11:11Z</time>
      </trkpt>
      <trkpt lat="45.78677" lon="5.91442">
        <ele>654</ele>
        <time>2010-01-01T02:11:22Z</time>
      </trkpt>
      <trkpt lat="45.78663" lon="5.91357">
        <ele>661</ele>
        <time>2010-01-01T02:11:47Z</time>
      </trkpt>
      <trkpt lat="45.7867" lon="5.91272">
        <ele>666</ele>
        <time>2010-01-01T02:12:10Z</time>
      </trkpt>
      <trkpt lat="45.7868" lon="5.91217">
        <ele>669</ele>
        <time>2010-01-01T02:12:26Z</time>
      </trkpt>
      <trkpt lat="45.78691" lon="5.9119">
        <ele>669</ele>
        <time>2010-01-01T02:12:35Z</time>
      </trkpt>
      <trkpt lat="45.78704" lon="5.9117">
        <ele>668</ele>
        <time>2010-01-01T02:12:43Z</time>
      </trkpt>
      <trkpt lat="45.78758" lon="5.91122">
        <ele>660</ele>
        <time>2010-01-01T02:13:08Z</time>
      </trkpt>
      <trkpt lat="45.78804" lon="5.91062">
        <ele>655</ele>
        <time>2010-01-01T02:13:33Z</time>
      </trkpt>
      <trkpt lat="45.78793" lon="5.90946">
        <ele>658</ele>
        <time>2010-01-01T02:14:06Z</time>
      </trkpt>
      <trkpt lat="45.78777" lon="5.90929">
        <ele>660</ele>
        <time>2010-01-01T02:14:14Z</time>
      </trkpt>
      <trkpt lat="45.78737" lon="5.90922">
        <ele>667</ele>
        <time>2010-01-01T02:14:30Z</time>
      </trkpt>
      <trkpt lat="45.78712" lon="5.90877">
        <ele>670</ele>
        <time>2010-01-01T02:14:46Z</time>
      </trkpt>
      <trkpt lat="45.78681" lon="5.90842">
        <ele>674</ele>
        <time>2010-01-01T02:15:02Z</time>
      </trkpt>
      <trkpt lat="45.78644" lon="5.90837">
        <ele>678</ele>
        <time>2010-01-01T02:15:16Z</time>
      </trkpt>
      <trkpt lat="45.78586" lon="5.90841">
        <ele>682</ele>
        <time>2010-01-01T02:15:40Z</time>
      </trkpt>
      <trkpt lat="45.78552" lon="5.90711">
        <ele>683</ele>
        <time>2010-01-01T02:16:19Z</time>
      </trkpt>
      <trkpt lat="45.78536" lon="5.90702">
        <ele>683</ele>
        <time>2010-01-01T02:16:26Z</time>
      </trkpt>
      <trkpt lat="45.78454" lon="5.90733">
        <ele>681</ele>
        <time>2010-01-01T02:17:00Z</time>
      </trkpt>
      <trkpt lat="45.78403" lon="5.90744">
        <ele>678</ele>
        <time>2010-01-01T02:17:20Z</time>
      </trkpt>
      <trkpt lat="45.78339" lon="5.90626">
        <ele>668</ele>
        <time>2010-01-01T02:18:02Z</time>
      </trkpt>
      <trkpt lat="45.78322" lon="5.90631">
        <ele>667</ele>
        <time>2010-01-01T02:18:09Z</time>
      </trkpt>
      <trkpt lat="45.78258" lon="5.90708">
        <ele>668</ele>
        <time>2010-01-01T02:18:42Z</time>
      </trkpt>
      <trkpt lat="45.78169" lon="5.90829">
        <ele>658</ele>
        <time>2010-01-01T02:19:32Z</time>
      </trkpt>
      <trkpt lat="45.78126" lon="5.91043">
        <ele>651</ele>
        <time>2010-01-01T02:20:34Z</time>
      </trkpt>
      <trkpt lat="45.7809" lon="5.91179">
        <ele>652</ele>
        <time>2010-01-01T02:21:14Z</time>
      </trkpt>
      <trkpt lat="45.78005" lon="5.91258">
        <ele>653</ele>
        <time>2010-01-01T02:21:55Z</time>
      </trkpt>
      <trkpt lat="45.77991" lon="5.91276">
        <ele>653</ele>
        <time>2010-01-01T02:22:02Z</time>
      </trkpt>
      <trkpt lat="45.77934" lon="5.9126">
        <ele>642</ele>
        <time>2010-01-01T02:22:25Z</time>
      </trkpt>
      <trkpt lat="45.77935" lon="5.91234">
        <ele>640</ele>
        <time>2010-01-01T02:22:33Z</time>
      </trkpt>
      <trkpt lat="45.77917" lon="5.91181">
        <ele>630</ele>
        <time>2010-01-01T02:22:49Z</time>
      </trkpt>
      <trkpt lat="45.7788" lon="5.91146">
        <ele>619</ele>
        <time>2010-01-01T02:23:07Z</time>
      </trkpt>
      <trkpt lat="45.77839" lon="5.91121">
        <ele>612</ele>
        <time>2010-01-01T02:23:25Z</time>
      </trkpt>
      <trkpt lat="45.77812" lon="5.91045">
        <ele>603</ele>
        <time>2010-01-01T02:23:49Z</time>
      </trkpt>
      <trkpt lat="45.77776" lon="5.90982">
        <ele>591</ele>
        <time>2010-01-01T02:24:11Z</time>
      </trkpt>
      <trkpt lat="45.77759" lon="5.90996">
        <ele>590</ele>
        <time>2010-01-01T02:24:19Z</time>
      </trkpt>
      <trkpt lat="45.77722" lon="5.91063">
        <ele>591</ele>
        <time>2010-01-01T02:24:43Z</time>
      </trkpt>
      <trkpt lat="45.77681" lon="5.91076">
        <ele>581</ele>
        <time>2010-01-01T02:25:00Z</time>
      </trkpt>
      <trkpt lat="45.7765" lon="5.91119">
        <ele>582</ele>
        <time>2010-01-01T02:25:17Z</time>
      </trkpt>
      <trkpt lat="45.77638" lon="5.911">
        <ele>581</ele>
        <time>2010-01-01T02:25:24Z</time>
      </trkpt>
      <trkpt lat="45.77621" lon="5.91092">
        <ele>579</ele>
        <time>2010-01-01T02:25:31Z</time>
      </trkpt>
      <trkpt lat="45.77552" lon="5.91147">
        <ele>567</ele>
        <time>2010-01-01T02:26:03Z</time>
      </trkpt>
      <trkpt lat="45.77497" lon="5.91124">
        <ele>552</ele>
        <time>2010-01-01T02:26:26Z</time>
      </trkpt>
      <trkpt lat="45.77484" lon="5.91103">
        <ele>549</ele>
        <time>2010-01-01T02:26:34Z</time>
      </trkpt>
      <trkpt lat="45.77473" lon="5.91042">
        <ele>543</ele>
        <time>2010-01-01T02:26:51Z</time>
      </trkpt>
      <trkpt lat="45.77476" lon="5.91012">
        <ele>542</ele>
        <time>2010-01-01T02:27:00Z</time>
      </trkpt>
      <trkpt lat="45.77512" lon="5.90931">
        <ele>544</ele>
        <time>2010-01-01T02:27:27Z</time>
      </trkpt>
      <trkpt lat="45.77509" lon="5.90901">
        <ele>540</ele>
        <time>2010-01-01T02:27:35Z</time>
      </trkpt>
      <trkpt lat="45.77485" lon="5.90901">
        <ele>533</ele>
        <time>2010-01-01T02:27:44Z</time>
      </trkpt>
      <trkpt lat="45.77491" lon="5.90831">
        <ele>526</ele>
        <time>2010-01-01T02:28:04Z</time>
      </trkpt>
      <trkpt lat="45.77485" lon="5.90806">
        <ele>521</ele>
        <time>2010-01-01T02:28:12Z</time>
      </trkpt>
      <trkpt lat="45.77445" lon="5.90765">
        <ele>505</ele>
        <time>2010-01-01T02:28:31Z</time>
      </trkpt>
      <trkpt lat="45.77478" lon="5.90674">
        <ele>496</ele>
        <time>2010-01-01T02:29:00Z</time>
      </trkpt>
      <trkpt lat="45.77476" lon="5.9061">
        <ele>487</ele>
        <time>2010-01-01T02:29:18Z</time>
      </trkpt>
      <trkpt lat="45.77497" lon="5.90593">
        <ele>489</ele>
        <time>2010-01-01T02:29:27Z</time>
      </trkpt>
      <trkpt lat="45.77503" lon="5.9056">
        <ele>487</ele>
        <time>2010-01-01T02:29:37Z</time>
      </trkpt>
      <trkpt lat="45.77486" lon="5.90535">
        <ele>480</ele>
        <time>2010-01-01T02:29:47Z</time>
      </trkpt>
      <trkpt lat="45.77466" lon="5.9052">
        <ele>474</ele>
        <time>2010-01-01T02:29:56Z</time>
      </trkpt>
      <trkpt lat="45.77429" lon="5.90474">
        <ele>463</ele>
        <time>2010-01-01T02:30:15Z</time>
      </trkpt>
      <trkpt lat="45.77387" lon="5.90504">
        <ele>455</ele>
        <time>2010-01-01T02:30:34Z</time>
      </trkpt>
      <trkpt lat="45.77364" lon="5.90511">
        <ele>451</ele>
        <time>2010-01-01T02:30:44Z</time>
      </trkpt>
      <trkpt lat="45.77351" lon="5.90493">
        <ele>448</ele>
        <time>2010-01-01T02:30:51Z</time>
      </trkpt>
      <trkpt lat="45.77346" lon="5.90464">
        <ele>447</ele>
        <time>2010-01-01T02:30:59Z</time>
      </trkpt>
      <trkpt lat="45.77347" lon="5.90436">
        <ele>447</ele>
        <time>2010-01-01T02:31:07Z</time>
      </trkpt>
      <trkpt lat="45.77356" lon="5.90413">
        <ele>448</ele>
        <time>2010-01-01T02:31:15Z</time>
      </trkpt>
      <trkpt lat="45.7734" lon="5.90393">
        <ele>445</ele>
        <time>2010-01-01T02:31:23Z</time>
      </trkpt>
      <trkpt lat="45.7729" lon="5.90393">
        <ele>446</ele>
        <time>2010-01-01T02:31:43Z</time>
      </trkpt>
      <trkpt lat="45.77275" lon="5.90403">
        <ele>447</ele>
        <time>2010-01-01T02:31:50Z</time>
      </trkpt>
      <trkpt lat="45.77272" lon="5.90438">
        <ele>447</ele>
        <time>2010-01-01T02:32:00Z</time>
      </trkpt>
      <trkpt lat="45.77257" lon="5.90459">
        <ele>450</ele>
        <time>2010-01-01T02:32:08Z</time>
      </trkpt>
      <trkpt lat="45.77255" lon="5.90402">
        <ele>450</ele>
        <time>2010-01-01T02:32:24Z</time>
      </trkpt>
      <trkpt lat="45.77239" lon="5.90264">
        <ele>456</ele>
        <time>2010-01-01T02:33:03Z</time>
      </trkpt>
      <trkpt lat="45.77191" lon="5.9021">
        <ele>460</ele>
        <time>2010-01-01T02:33:27Z</time>
      </trkpt>
      <trkpt lat="45.77174" lon="5.90227">
        <ele>460</ele>
        <time>2010-01-01T02:33:35Z</time>
      </trkpt>
      <trkpt lat="45.77123" lon="5.90287">
        <ele>457</ele>
        <time>2010-01-01T02:34:02Z</time>
      </trkpt>
      <trkpt lat="45.77037" lon="5.90366">
        <ele>453</ele>
        <time>2010-01-01T02:34:43Z</time>
      </trkpt>
      <trkpt lat="45.76976" lon="5.90443">
        <ele>450</ele>
        <time>2010-01-01T02:35:15Z</time>
      </trkpt>
      <trkpt lat="45.76959" lon="5.90442">
        <ele>448</ele>
        <time>2010-01-01T02:35:22Z</time>
      </trkpt>
      <trkpt lat="45.76934" lon="5.90395">
        <ele>448</ele>
        <time>2010-01-01T02:35:38Z</time>
      </trkpt>
      <trkpt lat="45.76802" lon="5.90193">
        <ele>459</ele>
        <time>2010-01-01T02:36:56Z</time>
      </trkpt>
      <trkpt lat="45.76785" lon="5.90185">
        <ele>460</ele>
        <time>2010-01-01T02:37:03Z</time>
      </trkpt>
      <trkpt lat="45.76768" lon="5.90197">
        <ele>461</ele>
        <time>2010-01-01T02:37:10Z</time>
      </trkpt>
      <trkpt lat="45.76748" lon="5.90196">
        <ele>464</ele>
        <time>2010-01-01T02:37:19Z</time>
      </trkpt>
      <trkpt lat="45.7671" lon="5.90187">
        <ele>468</ele>
        <time>2010-01-01T02:37:34Z</time>
      </trkpt>
      <trkpt lat="45.76694" lon="5.90171">
        <ele>470</ele>
        <time>2010-01-01T02:37:41Z</time>
      </trkpt>
      <trkpt lat="45.76675" lon="5.9012">
        <ele>474</ele>
        <time>2010-01-01T02:37:58Z</time>
      </trkpt>
      <trkpt lat="45.76656" lon="5.90113">
        <ele>479</ele>
        <time>2010-01-01T02:38:06Z</time>
      </trkpt>
      <trkpt lat="45.76641" lon="5.90132">
        <ele>480</ele>
        <time>2010-01-01T02:38:14Z</time>
      </trkpt>
      <trkpt lat="45.76599" lon="5.90144">
        <ele>487</ele>
        <time>2010-01-01T02:38:31Z</time>
      </trkpt>
      <trkpt lat="45.76559" lon="5.90178">
        <ele>489</ele>
        <time>2010-01-01T02:38:50Z</time>
      </trkpt>
      <trkpt lat="45.76553" lon="5.90152">
        <ele>493</ele>
        <time>2010-01-01T02:38:57Z</time>
      </trkpt>
      <trkpt lat="45.76575" lon="5.90058">
        <ele>506</ele>
        <time>2010-01-01T02:39:25Z</time>
      </trkpt>
      <trkpt lat="45.76577" lon="5.90023">
        <ele>512</ele>
        <time>2010-01-01T02:39:35Z</time>
      </trkpt>
      <trkpt lat="45.76629" lon="5.89899">
        <ele>522</ele>
        <time>2010-01-01T02:40:15Z</time>
      </trkpt>
      <trkpt lat="45.76636" lon="5.89867">
        <ele>527</ele>
        <time>2010-01-01T02:40:24Z</time>
      </trkpt>
      <trkpt lat="45.7667" lon="5.89784">
        <ele>535</ele>
        <time>2010-01-01T02:40:51Z</time>
      </trkpt>
      <trkpt lat="45.76702" lon="5.89744">
        <ele>537</ele>
        <time>2010-01-01T02:41:08Z</time>
      </trkpt>
      <trkpt lat="45.76702" lon="5.89717">
        <ele>541</ele>
        <time>2010-01-01T02:41:16Z</time>
      </trkpt>
      <trkpt lat="45.76674" lon="5.8972">
        <ele>543</ele>
        <time>2010-01-01T02:41:27Z</time>
      </trkpt>
      <trkpt lat="45.76651" lon="5.89724">
        <ele>548</ele>
        <time>2010-01-01T02:41:36Z</time>
      </trkpt>
      <trkpt lat="45.76537" lon="5.89827">
        <ele>561</ele>
        <time>2010-01-01T02:42:30Z</time>
      </trkpt>
      <trkpt lat="45.7639" lon="5.89933">
        <ele>579</ele>
        <time>2010-01-01T02:43:36Z</time>
      </trkpt>
      <trkpt lat="45.76371" lon="5.89927">
        <ele>582</ele>
        <time>2010-01-01T02:43:44Z</time>
      </trkpt>
      <trkpt lat="45.76371" lon="5.899">
        <ele>586</ele>
        <time>2010-01-01T02:43:51Z</time>
      </trkpt>
      <trkpt lat="45.76383" lon="5.89841">
        <ele>592</ele>
        <time>2010-01-01T02:44:08Z</time>
      </trkpt>
      <trkpt lat="45.76417" lon="5.89689">
        <ele>607</ele>
        <time>2010-01-01T02:44:53Z</time>
      </trkpt>
      <trkpt lat="45.76456" lon="5.89585">
        <ele>617</ele>
        <time>2010-01-01T02:45:26Z</time>
      </trkpt>
      <trkpt lat="45.76496" lon="5.8951">
        <ele>624</ele>
        <time>2010-01-01T02:45:53Z</time>
      </trkpt>
      <trkpt lat="45.76506" lon="5.8948">
        <ele>627</ele>
        <time>2010-01-01T02:46:02Z</time>
      </trkpt>
      <trkpt lat="45.76546" lon="5.89371">
        <ele>638</ele>
        <time>2010-01-01T02:46:36Z</time>
      </trkpt>
      <trkpt lat="45.76548" lon="5.89347">
        <ele>642</ele>
        <time>2010-01-01T02:46:43Z</time>
      </trkpt>
      <trkpt lat="45.76475" lon="5.8938">
        <ele>651</ele>
        <time>2010-01-01T02:47:13Z</time>
      </trkpt>
      <trkpt lat="45.76445" lon="5.89384">
        <ele>657</ele>
        <time>2010-01-01T02:47:25Z</time>
      </trkpt>
      <trkpt lat="45.76472" lon="5.89356">
        <ele>656</ele>
        <time>2010-01-01T02:47:39Z</time>
      </trkpt>
      <trkpt lat="45.76489" lon="5.89326">
        <ele>658</ele>
        <time>2010-01-01T02:47:49Z</time>
      </trkpt>
      <trkpt lat="45.76495" lon="5.89302">
        <ele>659</ele>
        <time>2010-01-01T02:47:57Z</time>
      </trkpt>
      <trkpt lat="45.76493" lon="5.89269">
        <ele>663</ele>
        <time>2010-01-01T02:48:06Z</time>
      </trkpt>
      <trkpt lat="45.76509" lon="5.89247">
        <ele>663</ele>
        <time>2010-01-01T02:48:15Z</time>
      </trkpt>
      <trkpt lat="45.76575" lon="5.89219">
        <ele>657</ele>
        <time>2010-01-01T02:48:42Z</time>
      </trkpt>
      <trkpt lat="45.76607" lon="5.89179">
        <ele>659</ele>
        <time>2010-01-01T02:48:59Z</time>
      </trkpt>
      <trkpt lat="45.76716" lon="5.89119">
        <ele>652</ele>
        <time>2010-01-01T02:49:46Z</time>
      </trkpt>
      <trkpt lat="45.76767" lon="5.89058">
        <ele>654</ele>
        <time>2010-01-01T02:50:13Z</time>
      </trkpt>
      <trkpt lat="45.76822" lon="5.89016">
        <ele>654</ele>
        <time>2010-01-01T02:50:38Z</time>
      </trkpt>
      <trkpt lat="45.76963" lon="5.88941">
        <ele>653</ele>
        <time>2010-01-01T02:51:38Z</time>
      </trkpt>
      <trkpt lat="45.77017" lon="5.8888">
        <ele>655</ele>
        <time>2010-01-01T02:52:05Z</time>
      </trkpt>
      <trkpt lat="45.77042" lon="5.88863">
        <ele>654</ele>
        <time>2010-01-01T02:52:16Z</time>
      </trkpt>
      <trkpt lat="45.77079" lon="5.88822">
        <ele>655</ele>
        <time>2010-01-01T02:52:35Z</time>
      </trkpt>
      <trkpt lat="45.7711" lon="5.88778">
        <ele>656</ele>
        <time>2010-01-01T02:52:53Z</time>
      </trkpt>
      <trkpt lat="45.77124" lon="5.88723">
        <ele>662</ele>
        <time>2010-01-01T02:53:09Z</time>
      </trkpt>
      <trkpt lat="45.7714" lon="5.88695">
        <ele>663</ele>
        <time>2010-01-01T02:53:19Z</time>
      </trkpt>
      <trkpt lat="45.77217" lon="5.88609">
        <ele>662</ele>
        <time>2010-01-01T02:53:58Z</time>
      </trkpt>
      <trkpt lat="45.77226" lon="5.88589">
        <ele>663</ele>
        <time>2010-01-01T02:54:05Z</time>
      </trkpt>
      <trkpt lat="45.77251" lon="5.88484">
        <ele>669</ele>
        <time>2010-01-01T02:54:36Z</time>
      </trkpt>
      <trkpt lat="45.77267" lon="5.88459">
        <ele>669</ele>
        <time>2010-01-01T02:54:45Z</time>
      </trkpt>
      <trkpt lat="45.77313" lon="5.88466">
        <ele>662</ele>
        <time>2010-01-01T02:55:03Z</time>
      </trkpt>
      <trkpt lat="45.77362" lon="5.88408">
        <ele>660</ele>
        <time>2010-01-01T02:55:29Z</time>
      </trkpt>
      <trkpt lat="45.77457" lon="5.88259">
        <ele>655</ele>
        <time>2010-01-01T02:56:26Z</time>
      </trkpt>
      <trkpt lat="45.77468" lon="5.88178">
        <ele>658</ele>
        <time>2010-01-01T02:56:49Z</time>
      </trkpt>
      <trkpt lat="45.77509" lon="5.88107">
        <ele>654</ele>
        <time>2010-01-01T02:57:14Z</time>
      </trkpt>
      <trkpt lat="45.77528" lon="5.88053">
        <ele>654</ele>
        <time>2010-01-01T02:57:31Z</time>
      </trkpt>
      <trkpt lat="45.77551" lon="5.88011">
        <ele>653</ele>
        <time>2010-01-01T02:57:46Z</time>
      </trkpt>
      <trkpt lat="45.77573" lon="5.87895">
        <ele>655</ele>
        <time>2010-01-01T02:58:20Z</time>
      </trkpt>
      <trkpt lat="45.77603" lon="5.87864">
        <ele>654</ele>
        <time>2010-01-01T02:58:35Z</time>
      </trkpt>
      <trkpt lat="45.77623" lon="5.87747">
        <ele>658</ele>
        <time>2010-01-01T02:59:08Z</time>
      </trkpt>
      <trkpt lat="45.77637" lon="5.87693">
        <ele>655</ele>
        <time>2010-01-01T02:59:25Z</time>
      </trkpt>
      <trkpt lat="45.77674" lon="5.87586">
        <ele>641</ele>
        <time>2010-01-01T02:59:58Z</time>
      </trkpt>
      <trkpt lat="45.77709" lon="5.87559">
        <ele>635</ele>
        <time>2010-01-01T03:00:14Z</time>
      </trkpt>
      <trkpt lat="45.7773" lon="5.87556">
        <ele>635</ele>
        <time>2010-01-01T03:00:22Z</time>
      </trkpt>
      <trkpt lat="45.77772" lon="5.87564">
        <ele>630</ele>
        <time>2010-01-01T03:00:39Z</time>
      </trkpt>
      <trkpt lat="45.77825" lon="5.87537">
        <ele>626</ele>
        <time>2010-01-01T03:01:01Z</time>
      </trkpt>
      <trkpt lat="45.77909" lon="5.87515">
        <ele>614</ele>
        <time>2010-01-01T03:01:36Z</time>
      </trkpt>
      <trkpt lat="45.7793" lon="5.87522">
        <ele>610</ele>
        <time>2010-01-01T03:01:44Z</time>
      </trkpt>
      <trkpt lat="45.77944" lon="5.87542">
        <ele>610</ele>
        <time>2010-01-01T03:01:52Z</time>
      </trkpt>
      <trkpt lat="45.77958" lon="5.87621">
        <ele>615</ele>
        <time>2010-01-01T03:02:15Z</time>
      </trkpt>
      <trkpt lat="45.77951" lon="5.8763">
        <ele>611</ele>
        <time>2010-01-01T03:02:19Z</time>
      </trkpt>
      <trkpt lat="45.77965" lon="5.8758">
        <ele>617</ele>
        <time>2010-01-01T03:02:34Z</time>
      </trkpt>
      <trkpt lat="45.77967" lon="5.87524">
        <ele>617</ele>
        <time>2010-01-01T03:02:50Z</time>
      </trkpt>
      <trkpt lat="45.77957" lon="5.87469">
        <ele>619</ele>
        <time>2010-01-01T03:03:05Z</time>
      </trkpt>
      <trkpt lat="45.77938" lon="5.87444">
        <ele>622</ele>
        <time>2010-01-01T03:03:16Z</time>
      </trkpt>
      <trkpt lat="45.77975" lon="5.87431">
        <ele>624</ele>
        <time>2010-01-01T03:03:31Z</time>
      </trkpt>
      <trkpt lat="45.7801" lon="5.87458">
        <ele>630</ele>
        <time>2010-01-01T03:03:47Z</time>
      </trkpt>
      <trkpt lat="45.78021" lon="5.8748">
        <ele>632</ele>
        <time>2010-01-01T03:03:55Z</time>
      </trkpt>
      <trkpt lat="45.78026" lon="5.87506">
        <ele>635</ele>
        <time>2010-01-01T03:04:02Z</time>
      </trkpt>
      <trkpt lat="45.78007" lon="5.87552">
        <ele>632</ele>
        <time>2010-01-01T03:04:17Z</time>
      </trkpt>
      <trkpt lat="45.78025" lon="5.87548">
        <ele>639</ele>
        <time>2010-01-01T03:04:25Z</time>
      </trkpt>
      <trkpt lat="45.78064" lon="5.87521">
        <ele>648</ele>
        <time>2010-01-01T03:04:42Z</time>
      </trkpt>
      <trkpt lat="45.78128" lon="5.87524">
        <ele>651</ele>
        <time>2010-01-01T03:05:08Z</time>
      </trkpt>
      <trkpt lat="45.7819" lon="5.87554">
        <ele>645</ele>
        <time>2010-01-01T03:05:34Z</time>
      </trkpt>
      <trkpt lat="45.78208" lon="5.87553">
        <ele>645</ele>
        <time>2010-01-01T03:05:41Z</time>
      </trkpt>
      <trkpt lat="45.78269" lon="5.87531">
        <ele>649</ele>
        <time>2010-01-01T03:06:07Z</time>
      </trkpt>
      <trkpt lat="45.78357" lon="5.87533">
        <ele>653</ele>
        <time>2010-01-01T03:06:42Z</time>
      </trkpt>
      <trkpt lat="45.784" lon="5.87546">
        <ele>655</ele>
        <time>2010-01-01T03:06:59Z</time>
      </trkpt>
      <trkpt lat="45.78511" lon="5.87608">
        <ele>665</ele>
        <time>2010-01-01T03:07:47Z</time>
      </trkpt>
      <trkpt lat="45.78585" lon="5.87656">
        <ele>670</ele>
        <time>2010-01-01T03:08:19Z</time>
      </trkpt>
      <trkpt lat="45.78604" lon="5.87661">
        <ele>672</ele>
        <time>2010-01-01T03:08:27Z</time>
      </trkpt>
      <trkpt lat="45.7867" lon="5.87658">
        <ele>682</ele>
        <time>2010-01-01T03:08:53Z</time>
      </trkpt>
      <trkpt lat="45.78747" lon="5.87709">
        <ele>682</ele>
        <time>2010-01-01T03:09:27Z</time>
      </trkpt>
      <trkpt lat="45.7879" lon="5.87708">
        <ele>685</ele>
        <time>2010-01-01T03:09:44Z</time>
      </trkpt>
      <trkpt lat="45.78873" lon="5.87744">
        <ele>688</ele>
        <time>2010-01-01T03:10:19Z</time>
      </trkpt>
      <trkpt lat="45.79004" lon="5.87778">
        <ele>700</ele>
        <time>2010-01-01T03:11:13Z</time>
      </trkpt>
      <trkpt lat="45.79044" lon="5.87848">
        <ele>692</ele>
        <time>2010-01-01T03:11:38Z</time>
      </trkpt>
      <trkpt lat="45.7906" lon="5.87864">
        <ele>690</ele>
        <time>2010-01-01T03:11:46Z</time>
      </trkpt>
      <trkpt lat="45.79084" lon="5.87858">
        <ele>692</ele>
        <time>2010-01-01T03:11:56Z</time>
      </trkpt>
      <trkpt lat="45.79103" lon="5.87864">
        <ele>692</ele>
        <time>2010-01-01T03:12:03Z</time>
      </trkpt>
      <trkpt lat="45.79175" lon="5.87911">
        <ele>695</ele>
        <time>2010-01-01T03:12:35Z</time>
      </trkpt>
      <trkpt lat="45.79211" lon="5.87921">
        <ele>695</ele>
        <time>2010-01-01T03:12:50Z</time>
      </trkpt>
      <trkpt lat="45.79232" lon="5.87923">
        <ele>695</ele>
        <time>2010-01-01T03:12:58Z</time>
      </trkpt>
      <trkpt lat="45.79268" lon="5.87892">
        <ele>702</ele>
        <time>2010-01-01T03:13:15Z</time>
      </trkpt>
      <trkpt lat="45.79288" lon="5.87876">
        <ele>707</ele>
        <time>2010-01-01T03:13:24Z</time>
      </trkpt>
      <trkpt lat="45.7931" lon="5.8787">
        <ele>709</ele>
        <time>2010-01-01T03:13:33Z</time>
      </trkpt>
      <trkpt lat="45.79373" lon="5.87859">
        <ele>711</ele>
        <time>2010-01-01T03:13:59Z</time>
      </trkpt>
      <trkpt lat="45.79436" lon="5.87864">
        <ele>716</ele>
        <time>2010-01-01T03:14:24Z</time>
      </trkpt>
      <trkpt lat="45.79475" lon="5.87843">
        <ele>723</ele>
        <time>2010-01-01T03:14:40Z</time>
      </trkpt>
      <trkpt lat="45.79515" lon="5.87849">
        <ele>725</ele>
        <time>2010-01-01T03:14:56Z</time>
      </trkpt>
      <trkpt lat="45.79528" lon="5.87869">
        <ele>726</ele>
        <time>2010-01-01T03:15:04Z</time>
      </trkpt>
      <trkpt lat="45.79537" lon="5.87895">
        <ele>726</ele>
        <time>2010-01-01T03:15:12Z</time>
      </trkpt>
      <trkpt lat="45.79596" lon="5.87934">
        <ele>727</ele>
        <time>2010-01-01T03:15:38Z</time>
      </trkpt>
      <trkpt lat="45.79657" lon="5.87925">
        <ele>729</ele>
        <time>2010-01-01T03:16:03Z</time>
      </trkpt>
      <trkpt lat="45.79702" lon="5.87931">
        <ele>728</ele>
        <time>2010-01-01T03:16:21Z</time>
      </trkpt>
      <trkpt lat="45.7974" lon="5.87921">
        <ele>731</ele>
        <time>2010-01-01T03:16:36Z</time>
      </trkpt>
      <trkpt lat="45.79774" lon="5.87926">
        <ele>733</ele>
        <time>2010-01-01T03:16:50Z</time>
      </trkpt>
      <trkpt lat="45.79798" lon="5.87919">
        <ele>738</ele>
        <time>2010-01-01T03:17:00Z</time>
      </trkpt>
      <trkpt lat="45.79814" lon="5.87935">
        <ele>737</ele>
        <time>2010-01-01T03:17:07Z</time>
      </trkpt>
      <trkpt lat="45.79832" lon="5.87938">
        <ele>739</ele>
        <time>2010-01-01T03:17:15Z</time>
      </trkpt>
      <trkpt lat="45.7987" lon="5.8793">
        <ele>746</ele>
        <time>2010-01-01T03:17:30Z</time>
      </trkpt>
      <trkpt lat="45.79887" lon="5.87919">
        <ele>751</ele>
        <time>2010-01-01T03:17:38Z</time>
      </trkpt>
      <trkpt lat="45.79906" lon="5.87916">
        <ele>754</ele>
        <time>2010-01-01T03:17:45Z</time>
      </trkpt>
      <trkpt lat="45.79924" lon="5.87925">
        <ele>757</ele>
        <time>2010-01-01T03:17:53Z</time>
      </trkpt>
      <trkpt lat="45.79926" lon="5.87905">
        <ele>760</ele>
        <time>2010-01-01T03:17:59Z</time>
      </trkpt>
      <trkpt lat="45.79877" lon="5.87864">
        <ele>760</ele>
        <time>2010-01-01T03:18:21Z</time>
      </trkpt>
      <trkpt lat="45.79891" lon="5.87852">
        <ele>763</ele>
        <time>2010-01-01T03:18:28Z</time>
      </trkpt>
      <trkpt lat="45.79948" lon="5.87869">
        <ele>767</ele>
        <time>2010-01-01T03:18:51Z</time>
      </trkpt>
      <trkpt lat="45.79959" lon="5.87851">
        <ele>775</ele>
        <time>2010-01-01T03:18:58Z</time>
      </trkpt>
      <trkpt lat="45.79928" lon="5.87821">
        <ele>775</ele>
        <time>2010-01-01T03:19:12Z</time>
      </trkpt>
      <trkpt lat="45.79951" lon="5.8784">
        <ele>775</ele>
        <time>2010-01-01T03:19:23Z</time>
      </trkpt>
      <trkpt lat="45.79934" lon="5.87827">
        <ele>775</ele>
        <time>2010-01-01T03:19:31Z</time>
      </trkpt>
      <trkpt lat="45.79909" lon="5.87787">
        <ele>778</ele>
        <time>2010-01-01T03:19:46Z</time>
      </trkpt>
      <trkpt lat="45.79862" lon="5.87713">
        <ele>787</ele>
        <time>2010-01-01T03:20:14Z</time>
      </trkpt>
      <trkpt lat="45.79846" lon="5.87686">
        <ele>790</ele>
        <time>2010-01-01T03:20:24Z</time>
      </trkpt>
      <trkpt lat="45.79835" lon="5.87666">
        <ele>791</ele>
        <time>2010-01-01T03:20:31Z</time>
      </trkpt>
      <trkpt lat="45.79808" lon="5.87638">
        <ele>790</ele>
        <time>2010-01-01T03:20:44Z</time>
      </trkpt>
      <trkpt lat="45.79851" lon="5.87587">
        <ele>800</ele>
        <time>2010-01-01T03:21:07Z</time>
      </trkpt>
      <trkpt lat="45.79887" lon="5.87557">
        <ele>808</ele>
        <time>2010-01-01T03:21:23Z</time>
      </trkpt>
      <trkpt lat="45.79902" lon="5.8745">
        <ele>813</ele>
        <time>2010-01-01T03:21:54Z</time>
      </trkpt>
      <trkpt lat="45.7992" lon="5.87436">
        <ele>819</ele>
        <time>2010-01-01T03:22:02Z</time>
      </trkpt>
      <trkpt lat="45.7992" lon="5.87409">
        <ele>817</ele>
        <time>2010-01-01T03:22:09Z</time>
      </trkpt>
      <trkpt lat="45.79911" lon="5.8738">
        <ele>811</ele>
        <time>2010-01-01T03:22:18Z</time>
      </trkpt>
      <trkpt lat="45.79914" lon="5.87324">
        <ele>807</ele>
        <time>2010-01-01T03:22:34Z</time>
      </trkpt>
      <trkpt lat="45.79923" lon="5.87307">
        <ele>808</ele>
        <time>2010-01-01T03:22:40Z</time>
      </trkpt>
      <trkpt lat="45.79961" lon="5.8732">
        <ele>827</ele>
        <time>2010-01-01T03:22:55Z</time>
      </trkpt>
      <trkpt lat="45.79984" lon="5.87274">
        <ele>829</ele>
        <time>2010-01-01T03:23:11Z</time>
      </trkpt>
      <trkpt lat="45.80082" lon="5.87174">
        <ele>840</ele>
        <time>2010-01-01T03:23:59Z</time>
      </trkpt>
      <trkpt lat="45.80154" lon="5.87122">
        <ele>849</ele>
        <time>2010-01-01T03:24:32Z</time>
      </trkpt>
      <trkpt lat="45.80232" lon="5.8709">
        <ele>861</ele>
        <time>2010-01-01T03:25:04Z</time>
      </trkpt>
      <trkpt lat="45.80272" lon="5.871">
        <ele>869</ele>
        <time>2010-01-01T03:25:20Z</time>
      </trkpt>
      <trkpt lat="45.80307" lon="5.87131">
        <ele>879</ele>
        <time>2010-01-01T03:25:37Z</time>
      </trkpt>
      <trkpt lat="45.80332" lon="5.87136">
        <ele>882</ele>
        <time>2010-01-01T03:25:47Z</time>
      </trkpt>
      <trkpt lat="45.8035" lon="5.87158">
        <ele>889</ele>
        <time>2010-01-01T03:25:56Z</time>
      </trkpt>
      <trkpt lat="45.80389" lon="5.87186">
        <ele>895</ele>
        <time>2010-01-01T03:26:14Z</time>
      </trkpt>
      <trkpt lat="45.80404" lon="5.87207">
        <ele>898</ele>
        <time>2010-01-01T03:26:22Z</time>
      </trkpt>
      <trkpt lat="45.80414" lon="5.87235">
        <ele>904</ele>
        <time>2010-01-01T03:26:31Z</time>
      </trkpt>
      <trkpt lat="45.80444" lon="5.87284">
        <ele>914</ele>
        <time>2010-01-01T03:26:49Z</time>
      </trkpt>
      <trkpt lat="45.80436" lon="5.87385">
        <ele>915</ele>
        <time>2010-01-01T03:27:17Z</time>
      </trkpt>
      <trkpt lat="45.80457" lon="5.87448">
        <ele>909</ele>
        <time>2010-01-01T03:27:37Z</time>
      </trkpt>
      <trkpt lat="45.80552" lon="5.87457">
        <ele>914</ele>
        <time>2010-01-01T03:28:15Z</time>
      </trkpt>
      <trkpt lat="45.80598" lon="5.87493">
        <ele>911</ele>
        <time>2010-01-01T03:28:36Z</time>
      </trkpt>
      <trkpt lat="45.80655" lon="5.87486">
        <ele>909</ele>
        <time>2010-01-01T03:28:59Z</time>
      </trkpt>
      <trkpt lat="45.80723" lon="5.87439">
        <ele>909</ele>
        <time>2010-01-01T03:29:29Z</time>
      </trkpt>
      <trkpt lat="45.80755" lon="5.87394">
        <ele>918</ele>
        <time>2010-01-01T03:29:47Z</time>
      </trkpt>
      <trkpt lat="45.8079" lon="5.87361">
        <ele>923</ele>
        <time>2010-01-01T03:30:04Z</time>
      </trkpt>
      <trkpt lat="45.80794" lon="5.87329">
        <ele>928</ele>
        <time>2010-01-01T03:30:13Z</time>
      </trkpt>
      <trkpt lat="45.80838" lon="5.87301">
        <ele>932</ele>
        <time>2010-01-01T03:30:32Z</time>
      </trkpt>
      <trkpt lat="45.80865" lon="5.87308">
        <ele>931</ele>
        <time>2010-01-01T03:30:43Z</time>
      </trkpt>
      <trkpt lat="45.80917" lon="5.87299">
        <ele>934</ele>
        <time>2010-01-01T03:31:04Z</time>
      </trkpt>
      <trkpt lat="45.80997" lon="5.87318">
        <ele>929</ele>
        <time>2010-01-01T03:31:37Z</time>
      </trkpt>
      <trkpt lat="45.81042" lon="5.87355">
        <ele>924</ele>
        <time>2010-01-01T03:31:57Z</time>
      </trkpt>
      <trkpt lat="45.81071" lon="5.87361">
        <ele>925</ele>
        <time>2010-01-01T03:32:09Z</time>
      </trkpt>
      <trkpt lat="45.81092" lon="5.87386">
        <ele>921</ele>
        <time>2010-01-01T03:32:20Z</time>
      </trkpt>
      <trkpt lat="45.81096" lon="5.87406">
        <ele>917</ele>
        <time>2010-01-01T03:32:26Z</time>
      </trkpt>
      <trkpt lat="45.8108" lon="5.87432">
        <ele>910</ele>
        <time>2010-01-01T03:32:35Z</time>
      </trkpt>
      <trkpt lat="45.8099" lon="5.87427">
        <ele>908</ele>
        <time>2010-01-01T03:33:11Z</time>
      </trkpt>
      <trkpt lat="45.80974" lon="5.87442">
        <ele>903</ele>
        <time>2010-01-01T03:33:19Z</time>
      </trkpt>
      <trkpt lat="45.80966" lon="5.87468">
        <ele>896</ele>
        <time>2010-01-01T03:33:27Z</time>
      </trkpt>
      <trkpt lat="45.80889" lon="5.87538">
        <ele>881</ele>
        <time>2010-01-01T03:34:03Z</time>
      </trkpt>
      <trkpt lat="45.80842" lon="5.87543">
        <ele>881</ele>
        <time>2010-01-01T03:34:22Z</time>
      </trkpt>
      <trkpt lat="45.80827" lon="5.87665">
        <ele>846</ele>
        <time>2010-01-01T03:34:57Z</time>
      </trkpt>
      <trkpt lat="45.80806" lon="5.877">
        <ele>838</ele>
        <time>2010-01-01T03:35:09Z</time>
      </trkpt>
      <trkpt lat="45.80805" lon="5.87711">
        <ele>835</ele>
        <time>2010-01-01T03:35:13Z</time>
      </trkpt>
      <trkpt lat="45.80841" lon="5.87685">
        <ele>839</ele>
        <time>2010-01-01T03:35:29Z</time>
      </trkpt>
      <trkpt lat="45.80924" lon="5.87663">
        <ele>843</ele>
        <time>2010-01-01T03:36:03Z</time>
      </trkpt>
      <trkpt lat="45.80942" lon="5.8765">
        <ele>845</ele>
        <time>2010-01-01T03:36:11Z</time>
      </trkpt>
      <trkpt lat="45.80958" lon="5.87629">
        <ele>849</ele>
        <time>2010-01-01T03:36:19Z</time>
      </trkpt>
      <trkpt lat="45.80997" lon="5.87614">
        <ele>851</ele>
        <time>2010-01-01T03:36:36Z</time>
      </trkpt>
      <trkpt lat="45.81016" lon="5.87619">
        <ele>849</ele>
        <time>2010-01-01T03:36:43Z</time>
      </trkpt>
      <trkpt lat="45.81091" lon="5.87613">
        <ele>852</ele>
        <time>2010-01-01T03:37:13Z</time>
      </trkpt>
      <trkpt lat="45.81127" lon="5.87595">
        <ele>856</ele>
        <time>2010-01-01T03:37:29Z</time>
      </trkpt>
      <trkpt lat="45.8121" lon="5.87595">
        <ele>857</ele>
        <time>2010-01-01T03:38:02Z</time>
      </trkpt>
      <trkpt lat="45.81307" lon="5.87596">
        <ele>857</ele>
        <time>2010-01-01T03:38:41Z</time>
      </trkpt>
      <trkpt lat="45.81364" lon="5.87608">
        <ele>851</ele>
        <time>2010-01-01T03:39:04Z</time>
      </trkpt>
      <trkpt lat="45.81404" lon="5.87601">
        <ele>850</ele>
        <time>2010-01-01T03:39:20Z</time>
      </trkpt>
      <trkpt lat="45.81492" lon="5.87603">
        <ele>844</ele>
        <time>2010-01-01T03:39:55Z</time>
      </trkpt>
      <trkpt lat="45.81507" lon="5.87603">
        <ele>845</ele>
        <time>2010-01-01T03:40:01Z</time>
      </trkpt>
      <trkpt lat="45.81483" lon="5.87655">
        <ele>833</ele>
        <time>2010-01-01T03:40:18Z</time>
      </trkpt>
      <trkpt lat="45.81468" lon="5.87669">
        <ele>830</ele>
        <time>2010-01-01T03:40:26Z</time>
      </trkpt>
      <trkpt lat="45.81451" lon="5.87654">
        <ele>831</ele>
        <time>2010-01-01T03:40:34Z</time>
      </trkpt>
      <trkpt lat="45.81428" lon="5.87663">
        <ele>829</ele>
        <time>2010-01-01T03:40:43Z</time>
      </trkpt>
      <trkpt lat="45.81393" lon="5.87695">
        <ele>821</ele>
        <time>2010-01-01T03:41:00Z</time>
      </trkpt>
      <trkpt lat="45.81348" lon="5.87716">
        <ele>815</ele>
        <time>2010-01-01T03:41:19Z</time>
      </trkpt>
      <trkpt lat="45.81336" lon="5.87735">
        <ele>809</ele>
        <time>2010-01-01T03:41:26Z</time>
      </trkpt>
      <trkpt lat="45.81377" lon="5.87762">
        <ele>804</ele>
        <time>2010-01-01T03:41:44Z</time>
      </trkpt>
      <trkpt lat="45.81355" lon="5.87775">
        <ele>799</ele>
        <time>2010-01-01T03:41:53Z</time>
      </trkpt>
      <trkpt lat="45.81306" lon="5.87761">
        <ele>799</ele>
        <time>2010-01-01T03:42:13Z</time>
      </trkpt>
      <trkpt lat="45.81277" lon="5.87774">
        <ele>793</ele>
        <time>2010-01-01T03:42:26Z</time>
      </trkpt>
      <trkpt lat="45.81254" lon="5.87784">
        <ele>789</ele>
        <time>2010-01-01T03:42:35Z</time>
      </trkpt>
      <trkpt lat="45.81202" lon="5.87788">
        <ele>786</ele>
        <time>2010-01-01T03:42:56Z</time>
      </trkpt>
      <trkpt lat="45.81189" lon="5.87797">
        <ele>783</ele>
        <time>2010-01-01T03:43:02Z</time>
      </trkpt>
      <trkpt lat="45.8122" lon="5.87813">
        <ele>777</ele>
        <time>2010-01-01T03:43:15Z</time>
      </trkpt>
      <trkpt lat="45.81244" lon="5.87812">
        <ele>780</ele>
        <time>2010-01-01T03:43:25Z</time>
      </trkpt>
      <trkpt lat="45.81263" lon="5.87836">
        <ele>775</ele>
        <time>2010-01-01T03:43:35Z</time>
      </trkpt>
      <trkpt lat="45.81253" lon="5.87856">
        <ele>769</ele>
        <time>2010-01-01T03:43:42Z</time>
      </trkpt>
      <trkpt lat="45.81228" lon="5.87845">
        <ele>768</ele>
        <time>2010-01-01T03:43:52Z</time>
      </trkpt>
      <trkpt lat="45.81176" lon="5.87857">
        <ele>763</ele>
        <time>2010-01-01T03:44:13Z</time>
      </trkpt>
      <trkpt lat="45.81151" lon="5.87856">
        <ele>764</ele>
        <time>2010-01-01T03:44:23Z</time>
      </trkpt>
      <trkpt lat="45.811" lon="5.87863">
        <ele>764</ele>
        <time>2010-01-01T03:44:44Z</time>
      </trkpt>
      <trkpt lat="45.81011" lon="5.8792">
        <ele>750</ele>
        <time>2010-01-01T03:45:23Z</time>
      </trkpt>
      <trkpt lat="45.80985" lon="5.8795">
        <ele>743</ele>
        <time>2010-01-01T03:45:36Z</time>
      </trkpt>
      <trkpt lat="45.80956" lon="5.88008">
        <ele>731</ele>
        <time>2010-01-01T03:45:56Z</time>
      </trkpt>
      <trkpt lat="45.8088" lon="5.88075">
        <ele>726</ele>
        <time>2010-01-01T03:46:32Z</time>
      </trkpt>
      <trkpt lat="45.80859" lon="5.88086">
        <ele>727</ele>
        <time>2010-01-01T03:46:41Z</time>
      </trkpt>
      <trkpt lat="45.80799" lon="5.88093">
        <ele>732</ele>
        <time>2010-01-01T03:47:05Z</time>
      </trkpt>
      <trkpt lat="45.80763" lon="5.88118">
        <ele>732</ele>
        <time>2010-01-01T03:47:21Z</time>
      </trkpt>
      <trkpt lat="45.80745" lon="5.88132">
        <ele>732</ele>
        <time>2010-01-01T03:47:29Z</time>
      </trkpt>
      <trkpt lat="45.80726" lon="5.88145">
        <ele>733</ele>
        <time>2010-01-01T03:47:37Z</time>
      </trkpt>
      <trkpt lat="45.80705" lon="5.88148">
        <ele>735</ele>
        <time>2010-01-01T03:47:45Z</time>
      </trkpt>
      <trkpt lat="45.80685" lon="5.88148">
        <ele>736</ele>
        <time>2010-01-01T03:47:54Z</time>
      </trkpt>
      <trkpt lat="45.80603" lon="5.88177">
        <ele>735</ele>
        <time>2010-01-01T03:48:28Z</time>
      </trkpt>
      <trkpt lat="45.80584" lon="5.88191">
        <ele>734</ele>
        <time>2010-01-01T03:48:36Z</time>
      </trkpt>
      <trkpt lat="45.80535" lon="5.88288">
        <ele>728</ele>
        <time>2010-01-01T03:49:09Z</time>
      </trkpt>
      <trkpt lat="45.80518" lon="5.88306">
        <ele>727</ele>
        <time>2010-01-01T03:49:18Z</time>
      </trkpt>
      <trkpt lat="45.80496" lon="5.88309">
        <ele>726</ele>
        <time>2010-01-01T03:49:27Z</time>
      </trkpt>
      <trkpt lat="45.80454" lon="5.88289">
        <ele>726</ele>
        <time>2010-01-01T03:49:45Z</time>
      </trkpt>
      <trkpt lat="45.8037" lon="5.88212">
        <ele>726</ele>
        <time>2010-01-01T03:50:24Z</time>
      </trkpt>
      <trkpt lat="45.80352" lon="5.88206">
        <ele>725</ele>
        <time>2010-01-01T03:50:32Z</time>
      </trkpt>
      <trkpt lat="45.80229" lon="5.88222">
        <ele>720</ele>
        <time>2010-01-01T03:51:21Z</time>
      </trkpt>
      <trkpt lat="45.8017" lon="5.88229">
        <ele>717</ele>
        <time>2010-01-01T03:51:45Z</time>
      </trkpt>
      <trkpt lat="45.80113" lon="5.88264">
        <ele>712</ele>
        <time>2010-01-01T03:52:10Z</time>
      </trkpt>
      <trkpt lat="45.80032" lon="5.88278">
        <ele>712</ele>
        <time>2010-01-01T03:52:43Z</time>
      </trkpt>
      <trkpt lat="45.7999" lon="5.88297">
        <ele>710</ele>
        <time>2010-01-01T03:53:00Z</time>
      </trkpt>
      <trkpt lat="45.79956" lon="5.88328">
        <ele>709</ele>
        <time>2010-01-01T03:53:16Z</time>
      </trkpt>
      <trkpt lat="45.79934" lon="5.8833">
        <ele>710</ele>
        <time>2010-01-01T03:53:25Z</time>
      </trkpt>
      <trkpt lat="45.79916" lon="5.88315">
        <ele>711</ele>
        <time>2010-01-01T03:53:33Z</time>
      </trkpt>
      <trkpt lat="45.79863" lon="5.88281">
        <ele>709</ele>
        <time>2010-01-01T03:53:57Z</time>
      </trkpt>
      <trkpt lat="45.79846" lon="5.88332">
        <ele>706</ele>
        <time>2010-01-01T03:54:13Z</time>
      </trkpt>
      <trkpt lat="45.79831" lon="5.88427">
        <ele>701</ele>
        <time>2010-01-01T03:54:40Z</time>
      </trkpt>
      <trkpt lat="45.79817" lon="5.88448">
        <ele>698</ele>
        <time>2010-01-01T03:54:48Z</time>
      </trkpt>
      <trkpt lat="45.79797" lon="5.88439">
        <ele>697</ele>
        <time>2010-01-01T03:54:56Z</time>
      </trkpt>
      <trkpt lat="45.7978" lon="5.88417">
        <ele>695</ele>
        <time>2010-01-01T03:55:05Z</time>
      </trkpt>
      <trkpt lat="45.79749" lon="5.88337">
        <ele>690</ele>
        <time>2010-01-01T03:55:31Z</time>
      </trkpt>
      <trkpt lat="45.79732" lon="5.88343">
        <ele>687</ele>
        <time>2010-01-01T03:55:38Z</time>
      </trkpt>
      <trkpt lat="45.79654" lon="5.88473">
        <ele>670</ele>
        <time>2010-01-01T03:56:26Z</time>
      </trkpt>
      <trkpt lat="45.79595" lon="5.88519">
        <ele>660</ele>
        <time>2010-01-01T03:56:53Z</time>
      </trkpt>
      <trkpt lat="45.79583" lon="5.8854">
        <ele>656</ele>
        <time>2010-01-01T03:57:00Z</time>
      </trkpt>
      <trkpt lat="45.79599" lon="5.88603">
        <ele>651</ele>
        <time>2010-01-01T03:57:19Z</time>
      </trkpt>
      <trkpt lat="45.79595" lon="5.88637">
        <ele>648</ele>
        <time>2010-01-01T03:57:29Z</time>
      </trkpt>
      <trkpt lat="45.79583" lon="5.88673">
        <ele>646</ele>
        <time>2010-01-01T03:57:40Z</time>
      </trkpt>
      <trkpt lat="45.79563" lon="5.88718">
        <ele>644</ele>
        <time>2010-01-01T03:57:54Z</time>
      </trkpt>
      <trkpt lat="45.79506" lon="5.88791">
        <ele>635</ele>
        <time>2010-01-01T03:58:25Z</time>
      </trkpt>
      <trkpt lat="45.79461" lon="5.88902">
        <ele>627</ele>
        <time>2010-01-01T03:59:01Z</time>
      </trkpt>
      <trkpt lat="45.79459" lon="5.88937">
        <ele>627</ele>
        <time>2010-01-01T03:59:11Z</time>
      </trkpt>
      <trkpt lat="45.79486" lon="5.89064">
        <ele>623</ele>
        <time>2010-01-01T03:59:48Z</time>
      </trkpt>
      <trkpt lat="45.79477" lon="5.89087">
        <ele>621</ele>
        <time>2010-01-01T03:59:55Z</time>
      </trkpt>
      <trkpt lat="45.79454" lon="5.89093">
        <ele>619</ele>
        <time>2010-01-01T04:00:04Z</time>
      </trkpt>
      <trkpt lat="45.79441" lon="5.89112">
        <ele>617</ele>
        <time>2010-01-01T04:00:12Z</time>
      </trkpt>
      <trkpt lat="45.79435" lon="5.8917">
        <ele>614</ele>
        <time>2010-01-01T04:00:28Z</time>
      </trkpt>
      <trkpt lat="45.79408" lon="5.89216">
        <ele>609</ele>
        <time>2010-01-01T04:00:45Z</time>
      </trkpt>
      <trkpt lat="45.79382" lon="5.89278">
        <ele>607</ele>
        <time>2010-01-01T04:01:05Z</time>
      </trkpt>
      <trkpt lat="45.79266" lon="5.89452">
        <ele>600</ele>
        <time>2010-01-01T04:02:12Z</time>
      </trkpt>
      <trkpt lat="45.79234" lon="5.89495">
        <ele>598</ele>
        <time>2010-01-01T04:02:30Z</time>
      </trkpt>
      <trkpt lat="45.79216" lon="5.89494">
        <ele>597</ele>
        <time>2010-01-01T04:02:37Z</time>
      </trkpt>
      <trkpt lat="45.79222" lon="5.8954">
        <ele>596</ele>
        <time>2010-01-01T04:02:50Z</time>
      </trkpt>
      <trkpt lat="45.79235" lon="5.89566">
        <ele>596</ele>
        <time>2010-01-01T04:02:59Z</time>
      </trkpt>
      <trkpt lat="45.79266" lon="5.89606">
        <ele>594</ele>
        <time>2010-01-01T04:03:16Z</time>
      </trkpt>
      <trkpt lat="45.79289" lon="5.89661">
        <ele>591</ele>
        <time>2010-01-01T04:03:34Z</time>
      </trkpt>
      <trkpt lat="45.79335" lon="5.89811">
        <ele>583</ele>
        <time>2010-01-01T04:04:19Z</time>
      </trkpt>
      <trkpt lat="45.79356" lon="5.89854">
        <ele>581</ele>
        <time>2010-01-01T04:04:34Z</time>
      </trkpt>
      <trkpt lat="45.7937" lon="5.89871">
        <ele>581</ele>
        <time>2010-01-01T04:04:41Z</time>
      </trkpt>
      <trkpt lat="45.79509" lon="5.89997">
        <ele>582</ele>
        <time>2010-01-01T04:05:47Z</time>
      </trkpt>
      <trkpt lat="45.79588" lon="5.90035">
        <ele>581</ele>
        <time>2010-01-01T04:06:21Z</time>
      </trkpt>
      <trkpt lat="45.79608" lon="5.90039">
        <ele>580</ele>
        <time>2010-01-01T04:06:29Z</time>
      </trkpt>
      <trkpt lat="45.79674" lon="5.9003">
        <ele>581</ele>
        <time>2010-01-01T04:06:55Z</time>
      </trkpt>
      <trkpt lat="45.79729" lon="5.90058">
        <ele>578</ele>
        <time>2010-01-01T04:07:18Z</time>
      </trkpt>
      <trkpt lat="45.79824" lon="5.90258">
        <ele>579</ele>
        <time>2010-01-01T04:08:26Z</time>
      </trkpt>
      <trkpt lat="45.79832" lon="5.90282">
        <ele>579</ele>
        <time>2010-01-01T04:08:33Z</time>
      </trkpt>
      <trkpt lat="45.79832" lon="5.90308">
        <ele>579</ele>
        <time>2010-01-01T04:08:41Z</time>
      </trkpt>
      <trkpt lat="45.79823" lon="5.90329">
        <ele>580</ele>
        <time>2010-01-01T04:08:48Z</time>
      </trkpt>
      <trkpt lat="45.79712" lon="5.90298">
        <ele>578</ele>
        <time>2010-01-01T04:09:33Z</time>
      </trkpt>
      <trkpt lat="45.79567" lon="5.90262">
        <ele>578</ele>
        <time>2010-01-01T04:10:32Z</time>
      </trkpt>
      <trkpt lat="45.79524" lon="5.90259">
        <ele>578</ele>
        <time>2010-01-01T04:10:49Z</time>
      </trkpt>
      <trkpt lat="45.79507" lon="5.90257">
        <ele>578</ele>
        <time>2010-01-01T04:10:56Z</time>
      </trkpt>
      <trkpt lat="45.79511" lon="5.90286">
        <ele>580</ele>
        <time>2010-01-01T04:11:04Z</time>
      </trkpt>
      <trkpt lat="45.79522" lon="5.90306">
        <ele>581</ele>
        <time>2010-01-01T04:11:11Z</time>
      </trkpt>
      <trkpt lat="45.79572" lon="5.9035">
        <ele>584</ele>
        <time>2010-01-01T04:11:35Z</time>
      </trkpt>
      <trkpt lat="45.7958" lon="5.90374">
        <ele>587</ele>
        <time>2010-01-01T04:11:42Z</time>
      </trkpt>
      <trkpt lat="45.79542" lon="5.90442">
        <ele>598</ele>
        <time>2010-01-01T04:12:06Z</time>
      </trkpt>
      <trkpt lat="45.79524" lon="5.90449">
        <ele>600</ele>
        <time>2010-01-01T04:12:14Z</time>
      </trkpt>
      <trkpt lat="45.79505" lon="5.9044">
        <ele>602</ele>
        <time>2010-01-01T04:12:22Z</time>
      </trkpt>
      <trkpt lat="45.79484" lon="5.90442">
        <ele>605</ele>
        <time>2010-01-01T04:12:30Z</time>
      </trkpt>
      <trkpt lat="45.79431" lon="5.9052">
        <ele>622</ele>
        <time>2010-01-01T04:13:01Z</time>
      </trkpt>
      <trkpt lat="45.79404" lon="5.90558">
        <ele>630</ele>
        <time>2010-01-01T04:13:16Z</time>
      </trkpt>
      <trkpt lat="45.79389" lon="5.90568">
        <ele>634</ele>
        <time>2010-01-01T04:13:22Z</time>
      </trkpt>
      <trkpt lat="45.79371" lon="5.90557">
        <ele>636</ele>
        <time>2010-01-01T04:13:30Z</time>
      </trkpt>
      <trkpt lat="45.79335" lon="5.90576">
        <ele>648</ele>
        <time>2010-01-01T04:13:46Z</time>
      </trkpt>
      <trkpt lat="45.79293" lon="5.90586">
        <ele>659</ele>
        <time>2010-01-01T04:14:03Z</time>
      </trkpt>
      <trkpt lat="45.79269" lon="5.90576">
        <ele>663</ele>
        <time>2010-01-01T04:14:13Z</time>
      </trkpt>
      <trkpt lat="45.79168" lon="5.90485">
        <ele>658</ele>
        <time>2010-01-01T04:15:00Z</time>
      </trkpt>
      <trkpt lat="45.79149" lon="5.90479">
        <ele>657</ele>
        <time>2010-01-01T04:15:08Z</time>
      </trkpt>
      <trkpt lat="45.79081" lon="5.9047">
        <ele>654</ele>
        <time>2010-01-01T04:15:36Z</time>
      </trkpt>
      <trkpt lat="45.79068" lon="5.90486">
        <ele>654</ele>
        <time>2010-01-01T04:15:42Z</time>
      </trkpt>
      <trkpt lat="45.79064" lon="5.90512">
        <ele>657</ele>
        <time>2010-01-01T04:15:50Z</time>
      </trkpt>
      <trkpt lat="45.79067" lon="5.90539">
        <ele>659</ele>
        <time>2010-01-01T04:15:58Z</time>
      </trkpt>
      <trkpt lat="45.79056" lon="5.90686">
        <ele>663</ele>
        <time>2010-01-01T04:16:39Z</time>
      </trkpt>
      <trkpt lat="45.79069" lon="5.90705">
        <ele>666</ele>
        <time>2010-01-01T04:16:46Z</time>
      </trkpt>
      <trkpt lat="45.79068" lon="5.90763">
        <ele>667</ele>
        <time>2010-01-01T04:17:03Z</time>
      </trkpt>
      <trkpt lat="45.79037" lon="5.90813">
        <ele>661</ele>
        <time>2010-01-01T04:17:21Z</time>
      </trkpt>
      <trkpt lat="45.79032" lon="5.90888">
        <ele>660</ele>
        <time>2010-01-01T04:17:42Z</time>
      </trkpt>
      <trkpt lat="45.79001" lon="5.91023">
        <ele>647</ele>
        <time>2010-01-01T04:18:22Z</time>
      </trkpt>
      <trkpt lat="45.79023" lon="5.91018">
        <ele>649</ele>
        <time>2010-01-01T04:18:31Z</time>
      </trkpt>
      <trkpt lat="45.79063" lon="5.91022">
        <ele>651</ele>
        <time>2010-01-01T04:18:47Z</time>
      </trkpt>
      <trkpt lat="45.7908" lon="5.91039">
        <ele>649</ele>
        <time>2010-01-01T04:18:55Z</time>
      </trkpt>
      <trkpt lat="45.79137" lon="5.91078">
        <ele>649</ele>
        <time>2010-01-01T04:19:20Z</time>
      </trkpt>
      <trkpt lat="45.79204" lon="5.91104">
        <ele>655</ele>
        <time>2010-01-01T04:19:48Z</time>
      </trkpt>
      <trkpt lat="45.79203" lon="5.91127">
        <ele>656</ele>
        <time>2010-01-01T04:19:54Z</time>
      </trkpt>
      <trkpt lat="45.79156" lon="5.91155">
        <ele>651</ele>
        <time>2010-01-01T04:20:15Z</time>
      </trkpt>
      <trkpt lat="45.79141" lon="5.91178">
        <ele>650</ele>
        <time>2010-01-01T04:20:24Z</time>
      </trkpt>
      <trkpt lat="45.79126" lon="5.91208">
        <ele>650</ele>
        <time>2010-01-01T04:20:34Z</time>
      </trkpt>
      <trkpt lat="45.79123" lon="5.91234">
        <ele>651</ele>
        <time>2010-01-01T04:20:42Z</time>
      </trkpt>
      <trkpt lat="45.7915" lon="5.91243">
        <ele>655</ele>
        <time>2010-01-01T04:20:53Z</time>
      </trkpt>
      <trkpt lat="45.79199" lon="5.91242">
        <ele>659</ele>
        <time>2010-01-01T04:21:12Z</time>
      </trkpt>
      <trkpt lat="45.79222" lon="5.91238">
        <ele>661</ele>
        <time>2010-01-01T04:21:22Z</time>
      </trkpt>
      <trkpt lat="45.79241" lon="5.91258">
        <ele>661</ele>
        <time>2010-01-01T04:21:31Z</time>
      </trkpt>
      <trkpt lat="45.79245" lon="5.91285">
        <ele>659</ele>
        <time>2010-01-01T04:21:39Z</time>
      </trkpt>
      <trkpt lat="45.79259" lon="5.91305">
        <ele>657</ele>
        <time>2010-01-01T04:21:47Z</time>
      </trkpt>
      <trkpt lat="45.79295" lon="5.913">
        <ele>655</ele>
        <time>2010-01-01T04:22:01Z</time>
      </trkpt>
      <trkpt lat="45.79358" lon="5.91308">
        <ele>645</ele>
        <time>2010-01-01T04:22:26Z</time>
      </trkpt>
      <trkpt lat="45.79432" lon="5.91301">
        <ele>644</ele>
        <time>2010-01-01T04:22:56Z</time>
      </trkpt>
      <trkpt lat="45.79457" lon="5.91319">
        <ele>640</ele>
        <time>2010-01-01T04:23:07Z</time>
      </trkpt>
      <trkpt lat="45.79467" lon="5.91354">
        <ele>631</ele>
        <time>2010-01-01T04:23:18Z</time>
      </trkpt>
      <trkpt lat="45.79534" lon="5.9138">
        <ele>620</ele>
        <time>2010-01-01T04:23:46Z</time>
      </trkpt>
      <trkpt lat="45.79553" lon="5.91398">
        <ele>616</ele>
        <time>2010-01-01T04:23:55Z</time>
      </trkpt>
      <trkpt lat="45.7962" lon="5.91518">
        <ele>605</ele>
        <time>2010-01-01T04:24:38Z</time>
      </trkpt>
      <trkpt lat="45.79628" lon="5.91543">
        <ele>603</ele>
        <time>2010-01-01T04:24:45Z</time>
      </trkpt>
      <trkpt lat="45.79632" lon="5.91607">
        <ele>595</ele>
        <time>2010-01-01T04:25:03Z</time>
      </trkpt>
      <trkpt lat="45.79675" lon="5.9168">
        <ele>593</ele>
        <time>2010-01-01T04:25:30Z</time>
      </trkpt>
      <trkpt lat="45.7968" lon="5.91711">
        <ele>590</ele>
        <time>2010-01-01T04:25:39Z</time>
      </trkpt>
      <trkpt lat="45.79727" lon="5.91776">
        <ele>588</ele>
        <time>2010-01-01T04:26:05Z</time>
      </trkpt>
      <trkpt lat="45.79779" lon="5.91851">
        <ele>586</ele>
        <time>2010-01-01T04:26:34Z</time>
      </trkpt>
      <trkpt lat="45.79816" lon="5.91891">
        <ele>583</ele>
        <time>2010-01-01T04:26:53Z</time>
      </trkpt>
      <trkpt lat="45.79835" lon="5.91898">
        <ele>581</ele>
        <time>2010-01-01T04:27:01Z</time>
      </trkpt>
      <trkpt lat="45.7984" lon="5.91921">
        <ele>580</ele>
        <time>2010-01-01T04:27:08Z</time>
      </trkpt>
      <trkpt lat="45.79841" lon="5.91978">
        <ele>576</ele>
        <time>2010-01-01T04:27:24Z</time>
      </trkpt>
      <trkpt lat="45.79865" lon="5.92066">
        <ele>571</ele>
        <time>2010-01-01T04:27:50Z</time>
      </trkpt>
      <trkpt lat="45.79908" lon="5.92134">
        <ele>570</ele>
        <time>2010-01-01T04:28:16Z</time>
      </trkpt>
      <trkpt lat="45.79987" lon="5.9224">
        <ele>573</ele>
        <time>2010-01-01T04:28:59Z</time>
      </trkpt>
      <trkpt lat="45.80011" lon="5.92291">
        <ele>577</ele>
        <time>2010-01-01T04:29:16Z</time>
      </trkpt>
      <trkpt lat="45.80038" lon="5.92367">
        <ele>576</ele>
        <time>2010-01-01T04:29:40Z</time>
      </trkpt>
      <trkpt lat="45.8005" lon="5.92459">
        <ele>566</ele>
        <time>2010-01-01T04:30:06Z</time>
      </trkpt>
      <trkpt lat="45.80021" lon="5.9257">
        <ele>549</ele>
        <time>2010-01-01T04:30:39Z</time>
      </trkpt>
      <trkpt lat="45.80019" lon="5.92596">
        <ele>545</ele>
        <time>2010-01-01T04:30:46Z</time>
      </trkpt>
      <trkpt lat="45.8003" lon="5.92624">
        <ele>541</ele>
        <time>2010-01-01T04:30:56Z</time>
      </trkpt>
      <trkpt lat="45.80054" lon="5.9264">
        <ele>540</ele>
        <time>2010-01-01T04:31:06Z</time>
      </trkpt>
      <trkpt lat="45.80092" lon="5.92681">
        <ele>534</ele>
        <time>2010-01-01T04:31:25Z</time>
      </trkpt>
      <trkpt lat="45.80125" lon="5.92719">
        <ele>527</ele>
        <time>2010-01-01T04:31:42Z</time>
      </trkpt>
      <trkpt lat="45.8014" lon="5.92746">
        <ele>524</ele>
        <time>2010-01-01T04:31:52Z</time>
      </trkpt>
      <trkpt lat="45.80204" lon="5.92795">
        <ele>518</ele>
        <time>2010-01-01T04:32:21Z</time>
      </trkpt>
      <trkpt lat="45.80218" lon="5.92817">
        <ele>517</ele>
        <time>2010-01-01T04:32:29Z</time>
      </trkpt>
      <trkpt lat="45.8023" lon="5.92888">
        <ele>511</ele>
        <time>2010-01-01T04:32:49Z</time>
      </trkpt>
      <trkpt lat="45.80269" lon="5.92966">
        <ele>507</ele>
        <time>2010-01-01T04:33:16Z</time>
      </trkpt>
      <trkpt lat="45.80277" lon="5.92997">
        <ele>506</ele>
        <time>2010-01-01T04:33:25Z</time>
      </trkpt>
      <trkpt lat="45.8028" lon="5.93029">
        <ele>504</ele>
        <time>2010-01-01T04:33:34Z</time>
      </trkpt>
      <trkpt lat="45.80292" lon="5.93045">
        <ele>503</ele>
        <time>2010-01-01T04:33:41Z</time>
      </trkpt>
      <trkpt lat="45.80406" lon="5.93084">
        <ele>501</ele>
        <time>2010-01-01T04:34:28Z</time>
      </trkpt>
      <trkpt lat="45.80443" lon="5.93065">
        <ele>502</ele>
        <time>2010-01-01T04:34:44Z</time>
      </trkpt>
      <trkpt lat="45.80479" lon="5.93093">
        <ele>500</ele>
        <time>2010-01-01T04:35:00Z</time>
      </trkpt>
      <trkpt lat="45.8052" lon="5.93102">
        <ele>496</ele>
        <time>2010-01-01T04:35:17Z</time>
      </trkpt>
      <trkpt lat="45.80531" lon="5.93122">
        <ele>493</ele>
        <time>2010-01-01T04:35:24Z</time>
      </trkpt>
      <trkpt lat="45.80534" lon="5.9315">
        <ele>490</ele>
        <time>2010-01-01T04:35:32Z</time>
      </trkpt>
      <trkpt lat="45.80533" lon="5.93207">
        <ele>482</ele>
        <time>2010-01-01T04:35:48Z</time>
      </trkpt>
      <trkpt lat="45.80522" lon="5.93294">
        <ele>474</ele>
        <time>2010-01-01T04:36:12Z</time>
      </trkpt>
      <trkpt lat="45.80524" lon="5.93382">
        <ele>469</ele>
        <time>2010-01-01T04:36:37Z</time>
      </trkpt>
      <trkpt lat="45.80533" lon="5.93416">
        <ele>467</ele>
        <time>2010-01-01T04:36:47Z</time>
      </trkpt>
      <trkpt lat="45.80579" lon="5.93506">
        <ele>464</ele>
        <time>2010-01-01T04:37:18Z</time>
      </trkpt>
      <trkpt lat="45.80586" lon="5.93536">
        <ele>464</ele>
        <time>2010-01-01T04:37:27Z</time>
      </trkpt>
      <trkpt lat="45.80577" lon="5.93627">
        <ele>459</ele>
        <time>2010-01-01T04:37:53Z</time>
      </trkpt>
      <trkpt lat="45.80593" lon="5.93679">
        <ele>455</ele>
        <time>2010-01-01T04:38:08Z</time>
      </trkpt>
      <trkpt lat="45.80602" lon="5.93791">
        <ele>443</ele>
        <time>2010-01-01T04:38:40Z</time>
      </trkpt>
      <trkpt lat="45.80623" lon="5.93881">
        <ele>435</ele>
        <time>2010-01-01T04:39:06Z</time>
      </trkpt>
      <trkpt lat="45.80626" lon="5.93973">
        <ele>420</ele>
        <time>2010-01-01T04:39:32Z</time>
      </trkpt>
      <trkpt lat="45.80642" lon="5.94027">
        <ele>413</ele>
        <time>2010-01-01T04:39:48Z</time>
      </trkpt>
      <trkpt lat="45.80733" lon="5.94155">
        <ele>403</ele>
        <time>2010-01-01T04:40:39Z</time>
      </trkpt>
      <trkpt lat="45.80737" lon="5.94185">
        <ele>400</ele>
        <time>2010-01-01T04:40:48Z</time>
      </trkpt>
      <trkpt lat="45.80716" lon="5.94301">
        <ele>389</ele>
        <time>2010-01-01T04:41:21Z</time>
      </trkpt>
      <trkpt lat="45.80715" lon="5.94326">
        <ele>387</ele>
        <time>2010-01-01T04:41:28Z</time>
      </trkpt>
      <trkpt lat="45.80724" lon="5.9435">
        <ele>386</ele>
        <time>2010-01-01T04:41:36Z</time>
      </trkpt>
      <trkpt lat="45.8073" lon="5.94417">
        <ele>384</ele>
        <time>2010-01-01T04:41:55Z</time>
      </trkpt>
      <trkpt lat="45.80698" lon="5.94585">
        <ele>381</ele>
        <time>2010-01-01T04:42:43Z</time>
      </trkpt>
      <trkpt lat="45.80722" lon="5.94827">
        <ele>382</ele>
        <time>2010-01-01T04:43:52Z</time>
      </trkpt>
      <trkpt lat="45.80716" lon="5.94951">
        <ele>377</ele>
        <time>2010-01-01T04:44:26Z</time>
      </trkpt>
      <trkpt lat="45.8072" lon="5.9501">
        <ele>372</ele>
        <time>2010-01-01T04:44:43Z</time>
      </trkpt>
      <trkpt lat="45.80708" lon="5.95067">
        <ele>369</ele>
        <time>2010-01-01T04:44:59Z</time>
      </trkpt>
      <trkpt lat="45.80689" lon="5.95072">
        <ele>369</ele>
        <time>2010-01-01T04:45:07Z</time>
      </trkpt>
      <trkpt lat="45.80652" lon="5.95074">
        <ele>367</ele>
        <time>2010-01-01T04:45:22Z</time>
      </trkpt>
      <trkpt lat="45.80642" lon="5.95104">
        <ele>367</ele>
        <time>2010-01-01T04:45:31Z</time>
      </trkpt>
      <trkpt lat="45.80607" lon="5.95308">
        <ele>366</ele>
        <time>2010-01-01T04:46:30Z</time>
      </trkpt>
      <trkpt lat="45.80601" lon="5.95434">
        <ele>362</ele>
        <time>2010-01-01T04:47:05Z</time>
      </trkpt>
      <trkpt lat="45.80595" lon="5.95459">
        <ele>361</ele>
        <time>2010-01-01T04:47:12Z</time>
      </trkpt>
      <trkpt lat="45.8063" lon="5.95564">
        <ele>359</ele>
        <time>2010-01-01T04:47:45Z</time>
      </trkpt>
      <trkpt lat="45.80635" lon="5.95651">
        <ele>360</ele>
        <time>2010-01-01T04:48:09Z</time>
      </trkpt>
      <trkpt lat="45.80647" lon="5.9567">
        <ele>361</ele>
        <time>2010-01-01T04:48:16Z</time>
      </trkpt>
      <trkpt lat="45.80723" lon="5.95704">
        <ele>366</ele>
        <time>2010-01-01T04:48:48Z</time>
      </trkpt>
      <trkpt lat="45.80735" lon="5.95728">
        <ele>368</ele>
        <time>2010-01-01T04:48:56Z</time>
      </trkpt>
      <trkpt lat="45.80738" lon="5.95758">
        <ele>370</ele>
        <time>2010-01-01T04:49:05Z</time>
      </trkpt>
      <trkpt lat="45.80728" lon="5.95844">
        <ele>371</ele>
        <time>2010-01-01T04:49:29Z</time>
      </trkpt>
      <trkpt lat="45.80738" lon="5.95987">
        <ele>369</ele>
        <time>2010-01-01T04:50:09Z</time>
      </trkpt>
      <trkpt lat="45.80743" lon="5.96067">
        <ele>367</ele>
        <time>2010-01-01T04:50:32Z</time>
      </trkpt>
      <trkpt lat="45.80757" lon="5.96119">
        <ele>366</ele>
        <time>2010-01-01T04:50:47Z</time>
      </trkpt>
      <trkpt lat="45.80783" lon="5.96163">
        <ele>364</ele>
        <time>2010-01-01T04:51:03Z</time>
      </trkpt>
      <trkpt lat="45.80797" lon="5.9618">
        <ele>363</ele>
        <time>2010-01-01T04:51:11Z</time>
      </trkpt>
      <trkpt lat="45.80818" lon="5.96189">
        <ele>363</ele>
        <time>2010-01-01T04:51:19Z</time>
      </trkpt>
      <trkpt lat="45.80892" lon="5.9612">
        <ele>365</ele>
        <time>2010-01-01T04:51:55Z</time>
      </trkpt>
      <trkpt lat="45.80899" lon="5.96181">
        <ele>364</ele>
        <time>2010-01-01T04:52:12Z</time>
      </trkpt>
      <trkpt lat="45.80909" lon="5.9642">
        <ele>367</ele>
        <time>2010-01-01T04:53:19Z</time>
      </trkpt>
      <trkpt lat="45.80914" lon="5.96446">
        <ele>368</ele>
        <time>2010-01-01T04:53:26Z</time>
      </trkpt>
      <trkpt lat="45.80937" lon="5.96498">
        <ele>369</ele>
        <time>2010-01-01T04:53:43Z</time>
      </trkpt>
      <trkpt lat="45.81" lon="5.9665">
        <ele>373</ele>
        <time>2010-01-01T04:54:33Z</time>
      </trkpt>
      <trkpt lat="45.81024" lon="5.9676">
        <ele>374</ele>
        <time>2010-01-01T04:55:05Z</time>
      </trkpt>
      <trkpt lat="45.81023" lon="5.96821">
        <ele>377</ele>
        <time>2010-01-01T04:55:22Z</time>
      </trkpt>
      <trkpt lat="45.81017" lon="5.96849">
        <ele>378</ele>
        <time>2010-01-01T04:55:30Z</time>
      </trkpt>
      <trkpt lat="45.81005" lon="5.96872">
        <ele>380</ele>
        <time>2010-01-01T04:55:38Z</time>
      </trkpt>
      <trkpt lat="45.80929" lon="5.96862">
        <ele>386</ele>
        <time>2010-01-01T04:56:09Z</time>
      </trkpt>
      <trkpt lat="45.80894" lon="5.96839">
        <ele>388</ele>
        <time>2010-01-01T04:56:24Z</time>
      </trkpt>
      <trkpt lat="45.80834" lon="5.96832">
        <ele>395</ele>
        <time>2010-01-01T04:56:49Z</time>
      </trkpt>
      <trkpt lat="45.8082" lon="5.96844">
        <ele>397</ele>
        <time>2010-01-01T04:56:55Z</time>
      </trkpt>
      <trkpt lat="45.80832" lon="5.96895">
        <ele>400</ele>
        <time>2010-01-01T04:57:10Z</time>
      </trkpt>
      <trkpt lat="45.80814" lon="5.96901">
        <ele>402</ele>
        <time>2010-01-01T04:57:17Z</time>
      </trkpt>
      <trkpt lat="45.80787" lon="5.96938">
        <ele>404</ele>
        <time>2010-01-01T04:57:32Z</time>
      </trkpt>
      <trkpt lat="45.80732" lon="5.96928">
        <ele>405</ele>
        <time>2010-01-01T04:57:54Z</time>
      </trkpt>
      <trkpt lat="45.80675" lon="5.96914">
        <ele>403</ele>
        <time>2010-01-01T04:58:17Z</time>
      </trkpt>
      <trkpt lat="45.80643" lon="5.96957">
        <ele>399</ele>
        <time>2010-01-01T04:58:35Z</time>
      </trkpt>
      <trkpt lat="45.80586" lon="5.97018">
        <ele>391</ele>
        <time>2010-01-01T04:59:03Z</time>
      </trkpt>
      <trkpt lat="45.8056" lon="5.97058">
        <ele>387</ele>
        <time>2010-01-01T04:59:19Z</time>
      </trkpt>
      <trkpt lat="45.80543" lon="5.97115">
        <ele>384</ele>
        <time>2010-01-01T04:59:36Z</time>
      </trkpt>
      <trkpt lat="45.80531" lon="5.97206">
        <ele>384</ele>
        <time>2010-01-01T05:00:02Z</time>
      </trkpt>
      <trkpt lat="45.80532" lon="5.97234">
        <ele>386</ele>
        <time>2010-01-01T05:00:09Z</time>
      </trkpt>
      <trkpt lat="45.80549" lon="5.97243">
        <ele>387</ele>
        <time>2010-01-01T05:00:17Z</time>
      </trkpt>
      <trkpt lat="45.80557" lon="5.97262">
        <ele>388</ele>
        <time>2010-01-01T05:00:23Z</time>
      </trkpt>
      <trkpt lat="45.80529" lon="5.97396">
        <ele>392</ele>
        <time>2010-01-01T05:01:02Z</time>
      </trkpt>
      <trkpt lat="45.80529" lon="5.97424">
        <ele>392</ele>
        <time>2010-01-01T05:01:10Z</time>
      </trkpt>
      <trkpt lat="45.80538" lon="5.9745">
        <ele>393</ele>
        <time>2010-01-01T05:01:18Z</time>
      </trkpt>
      <trkpt lat="45.80553" lon="5.9747">
        <ele>393</ele>
        <time>2010-01-01T05:01:26Z</time>
      </trkpt>
      <trkpt lat="45.80629" lon="5.97558">
        <ele>402</ele>
        <time>2010-01-01T05:02:05Z</time>
      </trkpt>
      <trkpt lat="45.80768" lon="5.97852">
        <ele>420</ele>
        <time>2010-01-01T05:03:44Z</time>
      </trkpt>
      <trkpt lat="45.80804" lon="5.97837">
        <ele>424</ele>
        <time>2010-01-01T05:03:59Z</time>
      </trkpt>
      <trkpt lat="45.80821" lon="5.97851">
        <ele>425</ele>
        <time>2010-01-01T05:04:07Z</time>
      </trkpt>
      <trkpt lat="45.80849" lon="5.9789">
        <ele>426</ele>
        <time>2010-01-01T05:04:22Z</time>
      </trkpt>
      <trkpt lat="45.80876" lon="5.97945">
        <ele>425</ele>
        <time>2010-01-01T05:04:41Z</time>
      </trkpt>
      <trkpt lat="45.80897" lon="5.98005">
        <ele>425</ele>
        <time>2010-01-01T05:05:00Z</time>
      </trkpt>
      <trkpt lat="45.80932" lon="5.97956">
        <ele>425</ele>
        <time>2010-01-01T05:05:20Z</time>
      </trkpt>
      <trkpt lat="45.80969" lon="5.97908">
        <ele>424</ele>
        <time>2010-01-01T05:05:39Z</time>
      </trkpt>
      <trkpt lat="45.80982" lon="5.97883">
        <ele>424</ele>
        <time>2010-01-01T05:05:48Z</time>
      </trkpt>
      <trkpt lat="45.81" lon="5.97798">
        <ele>421</ele>
        <time>2010-01-01T05:06:13Z</time>
      </trkpt>
      <trkpt lat="45.81034" lon="5.97696">
        <ele>413</ele>
        <time>2010-01-01T05:06:45Z</time>
      </trkpt>
      <trkpt lat="45.81038" lon="5.97665">
        <ele>410</ele>
        <time>2010-01-01T05:06:53Z</time>
      </trkpt>
      <trkpt lat="45.81056" lon="5.97671">
        <ele>409</ele>
        <time>2010-01-01T05:07:01Z</time>
      </trkpt>
      <trkpt lat="45.81151" lon="5.97816">
        <ele>410</ele>
        <time>2010-01-01T05:07:56Z</time>
      </trkpt>
      <trkpt lat="45.81209" lon="5.97888">
        <ele>409</ele>
        <time>2010-01-01T05:08:27Z</time>
      </trkpt>
      <trkpt lat="45.8128" lon="5.97999">
        <ele>412</ele>
        <time>2010-01-01T05:09:09Z</time>
      </trkpt>
      <trkpt lat="45.81316" lon="5.98028">
        <ele>412</ele>
        <time>2010-01-01T05:09:26Z</time>
      </trkpt>
      <trkpt lat="45.81357" lon="5.98042">
        <ele>413</ele>
        <time>2010-01-01T05:09:43Z</time>
      </trkpt>
      <trkpt lat="45.8143" lon="5.9808">
        <ele>414</ele>
        <time>2010-01-01T05:10:13Z</time>
      </trkpt>
      <trkpt lat="45.81525" lon="5.98103">
        <ele>414</ele>
        <time>2010-01-01T05:10:52Z</time>
      </trkpt>
      <trkpt lat="45.81654" lon="5.98183">
        <ele>411</ele>
        <time>2010-01-01T05:11:49Z</time>
      </trkpt>
      <trkpt lat="45.81731" lon="5.9828">
        <ele>409</ele>
        <time>2010-01-01T05:12:30Z</time>
      </trkpt>
      <trkpt lat="45.81816" lon="5.98374">
        <ele>410</ele>
        <time>2010-01-01T05:13:13Z</time>
      </trkpt>
      <trkpt lat="45.81833" lon="5.98379">
        <ele>410</ele>
        <time>2010-01-01T05:13:19Z</time>
      </trkpt>
      <trkpt lat="45.81885" lon="5.98288">
        <ele>402</ele>
        <time>2010-01-01T05:13:52Z</time>
      </trkpt>
      <trkpt lat="45.81932" lon="5.98228">
        <ele>401</ele>
        <time>2010-01-01T05:14:17Z</time>
      </trkpt>
      <trkpt lat="45.81958" lon="5.98179">
        <ele>402</ele>
        <time>2010-01-01T05:14:35Z</time>
      </trkpt>
      <trkpt lat="45.82027" lon="5.9811">
        <ele>405</ele>
        <time>2010-01-01T05:15:08Z</time>
      </trkpt>
      <trkpt lat="45.82121" lon="5.98061">
        <ele>408</ele>
        <time>2010-01-01T05:15:48Z</time>
      </trkpt>
      <trkpt lat="45.82197" lon="5.98035">
        <ele>408</ele>
        <time>2010-01-01T05:16:20Z</time>
      </trkpt>
      <trkpt lat="45.82233" lon="5.98007">
        <ele>409</ele>
        <time>2010-01-01T05:16:36Z</time>
      </trkpt>
      <trkpt lat="45.82285" lon="5.97964">
        <ele>410</ele>
        <time>2010-01-01T05:17:00Z</time>
      </trkpt>
      <trkpt lat="45.82311" lon="5.97919">
        <ele>408</ele>
        <time>2010-01-01T05:17:16Z</time>
      </trkpt>
      <trkpt lat="45.8235" lon="5.97904">
        <ele>406</ele>
        <time>2010-01-01T05:17:32Z</time>
      </trkpt>
      <trkpt lat="45.82466" lon="5.97784">
        <ele>397</ele>
        <time>2010-01-01T05:18:30Z</time>
      </trkpt>
      <trkpt lat="45.82529" lon="5.97757">
        <ele>396</ele>
        <time>2010-01-01T05:18:56Z</time>
      </trkpt>
      <trkpt lat="45.82544" lon="5.97768">
        <ele>397</ele>
        <time>2010-01-01T05:19:03Z</time>
      </trkpt>
      <trkpt lat="45.82545" lon="5.97827">
        <ele>401</ele>
        <time>2010-01-01T05:19:19Z</time>
      </trkpt>
      <trkpt lat="45.82533" lon="5.98022">
        <ele>411</ele>
        <time>2010-01-01T05:20:14Z</time>
      </trkpt>
      <trkpt lat="45.82532" lon="5.98081">
        <ele>415</ele>
        <time>2010-01-01T05:20:30Z</time>
      </trkpt>
      <trkpt lat="45.82548" lon="5.9816">
        <ele>418</ele>
        <time>2010-01-01T05:20:53Z</time>
      </trkpt>
      <trkpt lat="45.82548" lon="5.98188">
        <ele>419</ele>
        <time>2010-01-01T05:21:01Z</time>
      </trkpt>
      <trkpt lat="45.8255" lon="5.98186">
        <ele>418</ele>
        <time>2010-01-01T05:21:02Z</time>
      </trkpt>
      <trkpt lat="45.82536" lon="5.9823">
        <ele>420</ele>
        <time>2010-01-01T05:21:15Z</time>
      </trkpt>
      <trkpt lat="45.82541" lon="5.98246">
        <ele>420</ele>
        <time>2010-01-01T05:21:20Z</time>
      </trkpt>
      <trkpt lat="45.82613" lon="5.98316">
        <ele>414</ele>
        <time>2010-01-01T05:21:55Z</time>
      </trkpt>
      <trkpt lat="45.82853" lon="5.98587">
        <ele>397</ele>
        <time>2010-01-01T05:23:57Z</time>
      </trkpt>
      <trkpt lat="45.82882" lon="5.98619">
        <ele>402</ele>
        <time>2010-01-01T05:24:12Z</time>
      </trkpt>
      <trkpt lat="45.82932" lon="5.98654">
        <ele>407</ele>
        <time>2010-01-01T05:24:34Z</time>
      </trkpt>
      <trkpt lat="45.82969" lon="5.98716">
        <ele>412</ele>
        <time>2010-01-01T05:24:57Z</time>
      </trkpt>
      <trkpt lat="45.83016" lon="5.98768">
        <ele>418</ele>
        <time>2010-01-01T05:25:21Z</time>
      </trkpt>
      <trkpt lat="45.83027" lon="5.98789">
        <ele>419</ele>
        <time>2010-01-01T05:25:28Z</time>
      </trkpt>
      <trkpt lat="45.83031" lon="5.98817">
        <ele>421</ele>
        <time>2010-01-01T05:25:36Z</time>
      </trkpt>
      <trkpt lat="45.83022" lon="5.98839">
        <ele>422</ele>
        <time>2010-01-01T05:25:43Z</time>
      </trkpt>
      <trkpt lat="45.8301" lon="5.98866">
        <ele>423</ele>
        <time>2010-01-01T05:25:52Z</time>
      </trkpt>
      <trkpt lat="45.83015" lon="5.98894">
        <ele>424</ele>
        <time>2010-01-01T05:26:00Z</time>
      </trkpt>
      <trkpt lat="45.83144" lon="5.99057">
        <ele>438</ele>
        <time>2010-01-01T05:27:09Z</time>
      </trkpt>
      <trkpt lat="45.83161" lon="5.99072">
        <ele>438</ele>
        <time>2010-01-01T05:27:17Z</time>
      </trkpt>
      <trkpt lat="45.83187" lon="5.98999">
        <ele>435</ele>
        <time>2010-01-01T05:27:40Z</time>
      </trkpt>
      <trkpt lat="45.83208" lon="5.98946">
        <ele>435</ele>
        <time>2010-01-01T05:27:57Z</time>
      </trkpt>
      <trkpt lat="45.83221" lon="5.98929">
        <ele>436</ele>
        <time>2010-01-01T05:28:04Z</time>
      </trkpt>
      <trkpt lat="45.83294" lon="5.98872">
        <ele>440</ele>
        <time>2010-01-01T05:28:37Z</time>
      </trkpt>
      <trkpt lat="45.83331" lon="5.98856">
        <ele>441</ele>
        <time>2010-01-01T05:28:53Z</time>
      </trkpt>
      <trkpt lat="45.83344" lon="5.98836">
        <ele>441</ele>
        <time>2010-01-01T05:29:00Z</time>
      </trkpt>
      <trkpt lat="45.83349" lon="5.98809">
        <ele>442</ele>
        <time>2010-01-01T05:29:08Z</time>
      </trkpt>
      <trkpt lat="45.8335" lon="5.98728">
        <ele>444</ele>
        <time>2010-01-01T05:29:31Z</time>
      </trkpt>
      <trkpt lat="45.83355" lon="5.98705">
        <ele>443</ele>
        <time>2010-01-01T05:29:37Z</time>
      </trkpt>
      <trkpt lat="45.83448" lon="5.98629">
        <ele>444</ele>
        <time>2010-01-01T05:30:20Z</time>
      </trkpt>
      <trkpt lat="45.83523" lon="5.98488">
        <ele>445</ele>
        <time>2010-01-01T05:31:10Z</time>
      </trkpt>
      <trkpt lat="45.836" lon="5.98507">
        <ele>433</ele>
        <time>2010-01-01T05:31:41Z</time>
      </trkpt>
      <trkpt lat="45.83642" lon="5.98527">
        <ele>424</ele>
        <time>2010-01-01T05:31:59Z</time>
      </trkpt>
      <trkpt lat="45.83695" lon="5.98581">
        <ele>411</ele>
        <time>2010-01-01T05:32:25Z</time>
      </trkpt>
      <trkpt lat="45.83729" lon="5.98653">
        <ele>404</ele>
        <time>2010-01-01T05:32:49Z</time>
      </trkpt>
      <trkpt lat="45.83744" lon="5.98631">
        <ele>402</ele>
        <time>2010-01-01T05:32:58Z</time>
      </trkpt>
      <trkpt lat="45.8378" lon="5.98532">
        <ele>401</ele>
        <time>2010-01-01T05:33:29Z</time>
      </trkpt>
      <trkpt lat="45.83843" lon="5.98433">
        <ele>397</ele>
        <time>2010-01-01T05:34:06Z</time>
      </trkpt>
      <trkpt lat="45.83851" lon="5.984">
        <ele>394</ele>
        <time>2010-01-01T05:34:16Z</time>
      </trkpt>
      <trkpt lat="45.83851" lon="5.9834">
        <ele>392</ele>
        <time>2010-01-01T05:34:33Z</time>
      </trkpt>
      <trkpt lat="45.83863" lon="5.9828">
        <ele>388</ele>
        <time>2010-01-01T05:34:50Z</time>
      </trkpt>
      <trkpt lat="45.83895" lon="5.98192">
        <ele>379</ele>
        <time>2010-01-01T05:35:18Z</time>
      </trkpt>
      <trkpt lat="45.83942" lon="5.98101">
        <ele>373</ele>
        <time>2010-01-01T05:35:49Z</time>
      </trkpt>
      <trkpt lat="45.83972" lon="5.98008">
        <ele>370</ele>
        <time>2010-01-01T05:36:18Z</time>
      </trkpt>
      <trkpt lat="45.83984" lon="5.97949">
        <ele>369</ele>
        <time>2010-01-01T05:36:35Z</time>
      </trkpt>
      <trkpt lat="45.8402" lon="5.97521">
        <ele>368</ele>
        <time>2010-01-01T05:38:35Z</time>
      </trkpt>
      <trkpt lat="45.8408" lon="5.97222">
        <ele>366</ele>
        <time>2010-01-01T05:40:02Z</time>
      </trkpt>
      <trkpt lat="45.8409" lon="5.97196">
        <ele>366</ele>
        <time>2010-01-01T05:40:10Z</time>
      </trkpt>
      <trkpt lat="45.84187" lon="5.97009">
        <ele>363</ele>
        <time>2010-01-01T05:41:15Z</time>
      </trkpt>
      <trkpt lat="45.84293" lon="5.96914">
        <ele>360</ele>
        <time>2010-01-01T05:42:05Z</time>
      </trkpt>
      <trkpt lat="45.8431" lon="5.96912">
        <ele>358</ele>
        <time>2010-01-01T05:42:13Z</time>
      </trkpt>
      <trkpt lat="45.84332" lon="5.96966">
        <ele>359</ele>
        <time>2010-01-01T05:42:30Z</time>
      </trkpt>
      <trkpt lat="45.84355" lon="5.96982">
        <ele>356</ele>
        <time>2010-01-01T05:42:40Z</time>
      </trkpt>
      <trkpt lat="45.84381" lon="5.97038">
        <ele>355</ele>
        <time>2010-01-01T05:42:59Z</time>
      </trkpt>
      <trkpt lat="45.84405" lon="5.97092">
        <ele>356</ele>
        <time>2010-01-01T05:43:17Z</time>
      </trkpt>
      <trkpt lat="45.84483" lon="5.97089">
        <ele>345</ele>
        <time>2010-01-01T05:43:48Z</time>
      </trkpt>
      <trkpt lat="45.84524" lon="5.97069">
        <ele>341</ele>
        <time>2010-01-01T05:44:05Z</time>
      </trkpt>
      <trkpt lat="45.84564" lon="5.97071">
        <ele>338</ele>
        <time>2010-01-01T05:44:21Z</time>
      </trkpt>
      <trkpt lat="45.84621" lon="5.97038">
        <ele>334</ele>
        <time>2010-01-01T05:44:46Z</time>
      </trkpt>
      <trkpt lat="45.84643" lon="5.97041">
        <ele>332</ele>
        <time>2010-01-01T05:44:55Z</time>
      </trkpt>
      <trkpt lat="45.84661" lon="5.97032">
        <ele>332</ele>
        <time>2010-01-01T05:45:02Z</time>
      </trkpt>
      <trkpt lat="45.84716" lon="5.96981">
        <ele>332</ele>
        <time>2010-01-01T05:45:29Z</time>
      </trkpt>
      <trkpt lat="45.84731" lon="5.96957">
        <ele>332</ele>
        <time>2010-01-01T05:45:38Z</time>
      </trkpt>
      <trkpt lat="45.84732" lon="5.96924">
        <ele>333</ele>
        <time>2010-01-01T05:45:47Z</time>
      </trkpt>
      <trkpt lat="45.8472" lon="5.96902">
        <ele>335</ele>
        <time>2010-01-01T05:45:55Z</time>
      </trkpt>
      <trkpt lat="45.84691" lon="5.96825">
        <ele>338</ele>
        <time>2010-01-01T05:46:19Z</time>
      </trkpt>
      <trkpt lat="45.84696" lon="5.96739">
        <ele>340</ele>
        <time>2010-01-01T05:46:43Z</time>
      </trkpt>
      <trkpt lat="45.84773" lon="5.96544">
        <ele>339</ele>
        <time>2010-01-01T05:47:46Z</time>
      </trkpt>
      <trkpt lat="45.84784" lon="5.96492">
        <ele>340</ele>
        <time>2010-01-01T05:48:01Z</time>
      </trkpt>
      <trkpt lat="45.84784" lon="5.96434">
        <ele>340</ele>
        <time>2010-01-01T05:48:17Z</time>
      </trkpt>
      <trkpt lat="45.84803" lon="5.96425">
        <ele>340</ele>
        <time>2010-01-01T05:48:25Z</time>
      </trkpt>
      <trkpt lat="45.84871" lon="5.96497">
        <ele>338</ele>
        <time>2010-01-01T05:48:59Z</time>
      </trkpt>
      <trkpt lat="45.84897" lon="5.96536">
        <ele>337</ele>
        <time>2010-01-01T05:49:14Z</time>
      </trkpt>
      <trkpt lat="45.84972" lon="5.96425">
        <ele>335</ele>
        <time>2010-01-01T05:49:57Z</time>
      </trkpt>
      <trkpt lat="45.85047" lon="5.9636">
        <ele>333</ele>
        <time>2010-01-01T05:50:32Z</time>
      </trkpt>
      <trkpt lat="45.85068" lon="5.96275">
        <ele>332</ele>
        <time>2010-01-01T05:50:57Z</time>
      </trkpt>
      <trkpt lat="45.8508" lon="5.9625">
        <ele>332</ele>
        <time>2010-01-01T05:51:06Z</time>
      </trkpt>
      <trkpt lat="45.85121" lon="5.96227">
        <ele>331</ele>
        <time>2010-01-01T05:51:23Z</time>
      </trkpt>
      <trkpt lat="45.85135" lon="5.96211">
        <ele>330</ele>
        <time>2010-01-01T05:51:30Z</time>
      </trkpt>
      <trkpt lat="45.8514" lon="5.96159">
        <ele>331</ele>
        <time>2010-01-01T05:51:45Z</time>
      </trkpt>
      <trkpt lat="45.85216" lon="5.96122">
        <ele>331</ele>
        <time>2010-01-01T05:52:17Z</time>
      </trkpt>
      <trkpt lat="45.85295" lon="5.96079">
        <ele>330</ele>
        <time>2010-01-01T05:52:51Z</time>
      </trkpt>
      <trkpt lat="45.85366" lon="5.9601">
        <ele>333</ele>
        <time>2010-01-01T05:53:25Z</time>
      </trkpt>
      <trkpt lat="45.85437" lon="5.95911">
        <ele>339</ele>
        <time>2010-01-01T05:54:05Z</time>
      </trkpt>
      <trkpt lat="45.85456" lon="5.95897">
        <ele>339</ele>
        <time>2010-01-01T05:54:13Z</time>
      </trkpt>
      <trkpt lat="45.85477" lon="5.95894">
        <ele>341</ele>
        <time>2010-01-01T05:54:22Z</time>
      </trkpt>
      <trkpt lat="45.8553" lon="5.95925">
        <ele>341</ele>
        <time>2010-01-01T05:54:45Z</time>
      </trkpt>
      <trkpt lat="45.85586" lon="5.95946">
        <ele>342</ele>
        <time>2010-01-01T05:55:08Z</time>
      </trkpt>
      <trkpt lat="45.85726" lon="5.95969">
        <ele>348</ele>
        <time>2010-01-01T05:56:04Z</time>
      </trkpt>
      <trkpt lat="45.85744" lon="5.95954">
        <ele>348</ele>
        <time>2010-01-01T05:56:13Z</time>
      </trkpt>
      <trkpt lat="45.85756" lon="5.95933">
        <ele>348</ele>
        <time>2010-01-01T05:56:20Z</time>
      </trkpt>
      <trkpt lat="45.85771" lon="5.95878">
        <ele>347</ele>
        <time>2010-01-01T05:56:37Z</time>
      </trkpt>
      <trkpt lat="45.85791" lon="5.95831">
        <ele>346</ele>
        <time>2010-01-01T05:56:52Z</time>
      </trkpt>
      <trkpt lat="45.85816" lon="5.95793">
        <ele>345</ele>
        <time>2010-01-01T05:57:07Z</time>
      </trkpt>
      <trkpt lat="45.85866" lon="5.95745">
        <ele>345</ele>
        <time>2010-01-01T05:57:31Z</time>
      </trkpt>
      <trkpt lat="45.85972" lon="5.95652">
        <ele>348</ele>
        <time>2010-01-01T05:58:21Z</time>
      </trkpt>
    </trkseg>
  </trk>
</gpx>